<?xml version="1.0" encoding="UTF-8" standalone="no" ?>
<gpx xmlns="http://www.topografix.com/GPX/1/1" xmlns:xsi="http://www.w3.org/2001/XMLSchema-instance" xsi:schemaLocation="http://www.topografix.com/GPX/1/1 http://www.topografix.com/GPX/1/1/gpx.xsd" version="1.1" creator="VisuGPX - https://www.visugpx.com">
  <metadata>
    <name>12-06-2017 Ciney - Conjoux et retour</name>
    <desc><![CDATA[Itinéraire de détente en vélo électrique (VTC). ]]></desc>
  </metadata>
  <trk>
    <name><![CDATA[Tracé 12 juin 2017 18:56:34]]></name>
    <trkseg>
      <trkpt lat="50.29386" lon="5.09619">
        <ele>336.40883361604</ele>
        <time>2017-06-12T16:56:34Z</time>
      </trkpt>
      <trkpt lat="50.29386" lon="5.09619">
        <ele>335.37335843626</ele>
        <time>2017-06-12T16:57:16Z</time>
      </trkpt>
      <trkpt lat="50.29395" lon="5.09607">
        <ele>308.82591599682</ele>
        <time>2017-06-12T16:57:20Z</time>
      </trkpt>
      <trkpt lat="50.29396" lon="5.09591">
        <ele>292.62514577241</ele>
        <time>2017-06-12T16:57:24Z</time>
      </trkpt>
      <trkpt lat="50.29396" lon="5.09591">
        <ele>287.51356172495</ele>
        <time>2017-06-12T16:57:33Z</time>
      </trkpt>
      <trkpt lat="50.294" lon="5.09575">
        <ele>275.40237132255</ele>
        <time>2017-06-12T16:57:38Z</time>
      </trkpt>
      <trkpt lat="50.29416" lon="5.09583">
        <ele>276.94715098396</ele>
        <time>2017-06-12T16:57:43Z</time>
      </trkpt>
      <trkpt lat="50.29429" lon="5.09608">
        <ele>277.41425806206</ele>
        <time>2017-06-12T16:57:47Z</time>
      </trkpt>
      <trkpt lat="50.29443" lon="5.09637">
        <ele>277.31098619488</ele>
        <time>2017-06-12T16:57:52Z</time>
      </trkpt>
      <trkpt lat="50.29459" lon="5.09656">
        <ele>269.71715330227</ele>
        <time>2017-06-12T16:57:56Z</time>
      </trkpt>
      <trkpt lat="50.29475" lon="5.09674">
        <ele>266.27257115426</ele>
        <time>2017-06-12T16:58:00Z</time>
      </trkpt>
      <trkpt lat="50.29494" lon="5.09702">
        <ele>264.40863997984</ele>
        <time>2017-06-12T16:58:05Z</time>
      </trkpt>
      <trkpt lat="50.29509" lon="5.09726">
        <ele>265.27428275032</ele>
        <time>2017-06-12T16:58:09Z</time>
      </trkpt>
      <trkpt lat="50.29524" lon="5.09752">
        <ele>266.77503757948</ele>
        <time>2017-06-12T16:58:13Z</time>
      </trkpt>
      <trkpt lat="50.29543" lon="5.09782">
        <ele>267.32442232815</ele>
        <time>2017-06-12T16:58:18Z</time>
      </trkpt>
      <trkpt lat="50.29562" lon="5.09816">
        <ele>267.46150920482</ele>
        <time>2017-06-12T16:58:23Z</time>
      </trkpt>
      <trkpt lat="50.29582" lon="5.09847">
        <ele>267.70730708659</ele>
        <time>2017-06-12T16:58:28Z</time>
      </trkpt>
      <trkpt lat="50.29596" lon="5.0987">
        <ele>267.60424959684</ele>
        <time>2017-06-12T16:58:32Z</time>
      </trkpt>
      <trkpt lat="50.29612" lon="5.09892">
        <ele>269.04938548749</ele>
        <time>2017-06-12T16:58:36Z</time>
      </trkpt>
      <trkpt lat="50.29639" lon="5.09915">
        <ele>269.31513756322</ele>
        <time>2017-06-12T16:58:41Z</time>
      </trkpt>
      <trkpt lat="50.29661" lon="5.09931">
        <ele>268.2857457998</ele>
        <time>2017-06-12T16:58:45Z</time>
      </trkpt>
      <trkpt lat="50.29679" lon="5.0995">
        <ele>267.63059027009</ele>
        <time>2017-06-12T16:58:49Z</time>
      </trkpt>
      <trkpt lat="50.2967" lon="5.09983">
        <ele>266.30373041724</ele>
        <time>2017-06-12T16:58:54Z</time>
      </trkpt>
      <trkpt lat="50.29667" lon="5.1001">
        <ele>266.17540996999</ele>
        <time>2017-06-12T16:58:58Z</time>
      </trkpt>
      <trkpt lat="50.29678" lon="5.10028">
        <ele>266.86885876013</ele>
        <time>2017-06-12T16:59:02Z</time>
      </trkpt>
      <trkpt lat="50.29689" lon="5.10051">
        <ele>272.39070791893</ele>
        <time>2017-06-12T16:59:06Z</time>
      </trkpt>
      <trkpt lat="50.29706" lon="5.10076">
        <ele>278.06084671718</ele>
        <time>2017-06-12T16:59:10Z</time>
      </trkpt>
      <trkpt lat="50.29725" lon="5.10088">
        <ele>278.33677589729</ele>
        <time>2017-06-12T16:59:14Z</time>
      </trkpt>
      <trkpt lat="50.29739" lon="5.10107">
        <ele>277.81313710297</ele>
        <time>2017-06-12T16:59:19Z</time>
      </trkpt>
      <trkpt lat="50.29737" lon="5.1012">
        <ele>277.69654903529</ele>
        <time>2017-06-12T16:59:23Z</time>
      </trkpt>
      <trkpt lat="50.29728" lon="5.10138">
        <ele>275.06340310483</ele>
        <time>2017-06-12T16:59:27Z</time>
      </trkpt>
      <trkpt lat="50.29706" lon="5.10169">
        <ele>271.8793949449</ele>
        <time>2017-06-12T16:59:32Z</time>
      </trkpt>
      <trkpt lat="50.29692" lon="5.10195">
        <ele>271.90662333089</ele>
        <time>2017-06-12T16:59:36Z</time>
      </trkpt>
      <trkpt lat="50.29706" lon="5.10229">
        <ele>271.74782797631</ele>
        <time>2017-06-12T16:59:41Z</time>
      </trkpt>
      <trkpt lat="50.2972" lon="5.10263">
        <ele>273.2780362655</ele>
        <time>2017-06-12T16:59:45Z</time>
      </trkpt>
      <trkpt lat="50.29712" lon="5.10284">
        <ele>274.58632117032</ele>
        <time>2017-06-12T16:59:50Z</time>
      </trkpt>
      <trkpt lat="50.29694" lon="5.10299">
        <ele>277.58620147216</ele>
        <time>2017-06-12T16:59:54Z</time>
      </trkpt>
      <trkpt lat="50.29662" lon="5.10323">
        <ele>279.51611123057</ele>
        <time>2017-06-12T16:59:59Z</time>
      </trkpt>
      <trkpt lat="50.29641" lon="5.10345">
        <ele>280.8879894466</ele>
        <time>2017-06-12T17:00:03Z</time>
      </trkpt>
      <trkpt lat="50.29618" lon="5.10365">
        <ele>282.39184706783</ele>
        <time>2017-06-12T17:00:07Z</time>
      </trkpt>
      <trkpt lat="50.29592" lon="5.10394">
        <ele>282.23132796696</ele>
        <time>2017-06-12T17:00:12Z</time>
      </trkpt>
      <trkpt lat="50.29573" lon="5.1042">
        <ele>279.4335484262</ele>
        <time>2017-06-12T17:00:16Z</time>
      </trkpt>
      <trkpt lat="50.29557" lon="5.10446">
        <ele>278.42495250453</ele>
        <time>2017-06-12T17:00:20Z</time>
      </trkpt>
      <trkpt lat="50.29545" lon="5.10473">
        <ele>278.07613316796</ele>
        <time>2017-06-12T17:00:24Z</time>
      </trkpt>
      <trkpt lat="50.29524" lon="5.10505">
        <ele>278.75861234886</ele>
        <time>2017-06-12T17:00:29Z</time>
      </trkpt>
      <trkpt lat="50.29507" lon="5.10535">
        <ele>279.74978766301</ele>
        <time>2017-06-12T17:00:33Z</time>
      </trkpt>
      <trkpt lat="50.29491" lon="5.10567">
        <ele>281.08379904852</ele>
        <time>2017-06-12T17:00:37Z</time>
      </trkpt>
      <trkpt lat="50.29473" lon="5.10607">
        <ele>281.84584591737</ele>
        <time>2017-06-12T17:00:42Z</time>
      </trkpt>
      <trkpt lat="50.29457" lon="5.10633">
        <ele>282.99388449303</ele>
        <time>2017-06-12T17:00:46Z</time>
      </trkpt>
      <trkpt lat="50.29437" lon="5.10667">
        <ele>284.49018952893</ele>
        <time>2017-06-12T17:00:51Z</time>
      </trkpt>
      <trkpt lat="50.29422" lon="5.10695">
        <ele>285.75256765482</ele>
        <time>2017-06-12T17:00:55Z</time>
      </trkpt>
      <trkpt lat="50.29402" lon="5.10709">
        <ele>286.17041303172</ele>
        <time>2017-06-12T17:00:59Z</time>
      </trkpt>
      <trkpt lat="50.29375" lon="5.10697">
        <ele>286.19241567021</ele>
        <time>2017-06-12T17:01:04Z</time>
      </trkpt>
      <trkpt lat="50.29356" lon="5.1069">
        <ele>284.43162142839</ele>
        <time>2017-06-12T17:01:08Z</time>
      </trkpt>
      <trkpt lat="50.29335" lon="5.10706">
        <ele>281.38905891244</ele>
        <time>2017-06-12T17:01:12Z</time>
      </trkpt>
      <trkpt lat="50.29305" lon="5.10738">
        <ele>280.01502866007</ele>
        <time>2017-06-12T17:01:17Z</time>
      </trkpt>
      <trkpt lat="50.29279" lon="5.1076">
        <ele>279.72516788592</ele>
        <time>2017-06-12T17:01:21Z</time>
      </trkpt>
      <trkpt lat="50.29249" lon="5.10773">
        <ele>279.18752328932</ele>
        <time>2017-06-12T17:01:25Z</time>
      </trkpt>
      <trkpt lat="50.29219" lon="5.10785">
        <ele>278.43921529946</ele>
        <time>2017-06-12T17:01:29Z</time>
      </trkpt>
      <trkpt lat="50.29191" lon="5.10797">
        <ele>277.04094298673</ele>
        <time>2017-06-12T17:01:33Z</time>
      </trkpt>
      <trkpt lat="50.29166" lon="5.10808">
        <ele>276.20931567305</ele>
        <time>2017-06-12T17:01:37Z</time>
      </trkpt>
      <trkpt lat="50.29144" lon="5.10817">
        <ele>275.52986035542</ele>
        <time>2017-06-12T17:01:41Z</time>
      </trkpt>
      <trkpt lat="50.29116" lon="5.10829">
        <ele>274.78741878424</ele>
        <time>2017-06-12T17:01:46Z</time>
      </trkpt>
      <trkpt lat="50.29092" lon="5.1084">
        <ele>274.59189017654</ele>
        <time>2017-06-12T17:01:50Z</time>
      </trkpt>
      <trkpt lat="50.29068" lon="5.10852">
        <ele>275.26683141692</ele>
        <time>2017-06-12T17:01:54Z</time>
      </trkpt>
      <trkpt lat="50.29045" lon="5.10863">
        <ele>275.73238047</ele>
        <time>2017-06-12T17:01:58Z</time>
      </trkpt>
      <trkpt lat="50.29023" lon="5.10873">
        <ele>276.59590918046</ele>
        <time>2017-06-12T17:02:02Z</time>
      </trkpt>
      <trkpt lat="50.28997" lon="5.10871">
        <ele>274.84776680397</ele>
        <time>2017-06-12T17:02:06Z</time>
      </trkpt>
      <trkpt lat="50.28971" lon="5.10895">
        <ele>278.76906786842</ele>
        <time>2017-06-12T17:02:11Z</time>
      </trkpt>
      <trkpt lat="50.2895" lon="5.10912">
        <ele>284.39667967391</ele>
        <time>2017-06-12T17:02:15Z</time>
      </trkpt>
      <trkpt lat="50.28927" lon="5.10927">
        <ele>285.17584752101</ele>
        <time>2017-06-12T17:02:20Z</time>
      </trkpt>
      <trkpt lat="50.28912" lon="5.1094">
        <ele>283.88794406771</ele>
        <time>2017-06-12T17:02:24Z</time>
      </trkpt>
      <trkpt lat="50.28894" lon="5.10961">
        <ele>285.36435842064</ele>
        <time>2017-06-12T17:02:29Z</time>
      </trkpt>
      <trkpt lat="50.28878" lon="5.10982">
        <ele>288.01930169307</ele>
        <time>2017-06-12T17:02:34Z</time>
      </trkpt>
      <trkpt lat="50.28865" lon="5.10999">
        <ele>290.92908297938</ele>
        <time>2017-06-12T17:02:38Z</time>
      </trkpt>
      <trkpt lat="50.28851" lon="5.11018">
        <ele>293.09190563889</ele>
        <time>2017-06-12T17:02:42Z</time>
      </trkpt>
      <trkpt lat="50.28834" lon="5.11036">
        <ele>294.08584739126</ele>
        <time>2017-06-12T17:02:46Z</time>
      </trkpt>
      <trkpt lat="50.28811" lon="5.11061">
        <ele>295.50230143161</ele>
        <time>2017-06-12T17:02:51Z</time>
      </trkpt>
      <trkpt lat="50.28786" lon="5.11085">
        <ele>294.6295421079</ele>
        <time>2017-06-12T17:02:55Z</time>
      </trkpt>
      <trkpt lat="50.28755" lon="5.11109">
        <ele>292.37482894632</ele>
        <time>2017-06-12T17:02:59Z</time>
      </trkpt>
      <trkpt lat="50.2872" lon="5.11133">
        <ele>289.8276592563</ele>
        <time>2017-06-12T17:03:03Z</time>
      </trkpt>
      <trkpt lat="50.28666" lon="5.11152">
        <ele>287.03931902531</ele>
        <time>2017-06-12T17:03:08Z</time>
      </trkpt>
      <trkpt lat="50.28616" lon="5.11158">
        <ele>285.47378935053</ele>
        <time>2017-06-12T17:03:13Z</time>
      </trkpt>
      <trkpt lat="50.28586" lon="5.11158">
        <ele>285.09682960443</ele>
        <time>2017-06-12T17:03:17Z</time>
      </trkpt>
      <trkpt lat="50.2856" lon="5.11166">
        <ele>285.84594134117</ele>
        <time>2017-06-12T17:03:21Z</time>
      </trkpt>
      <trkpt lat="50.28536" lon="5.11184">
        <ele>286.95420187636</ele>
        <time>2017-06-12T17:03:25Z</time>
      </trkpt>
      <trkpt lat="50.28513" lon="5.11203">
        <ele>287.70926749341</ele>
        <time>2017-06-12T17:03:29Z</time>
      </trkpt>
      <trkpt lat="50.28488" lon="5.11215">
        <ele>287.52415296544</ele>
        <time>2017-06-12T17:03:33Z</time>
      </trkpt>
      <trkpt lat="50.28454" lon="5.11228">
        <ele>285.90728518917</ele>
        <time>2017-06-12T17:03:38Z</time>
      </trkpt>
      <trkpt lat="50.28425" lon="5.11242">
        <ele>284.39475275211</ele>
        <time>2017-06-12T17:03:42Z</time>
      </trkpt>
      <trkpt lat="50.28386" lon="5.11244">
        <ele>283.44746629845</ele>
        <time>2017-06-12T17:03:47Z</time>
      </trkpt>
      <trkpt lat="50.28353" lon="5.11234">
        <ele>282.75117387217</ele>
        <time>2017-06-12T17:03:51Z</time>
      </trkpt>
      <trkpt lat="50.28308" lon="5.11228">
        <ele>281.65136500581</ele>
        <time>2017-06-12T17:03:56Z</time>
      </trkpt>
      <trkpt lat="50.28267" lon="5.11239">
        <ele>279.67159128015</ele>
        <time>2017-06-12T17:04:00Z</time>
      </trkpt>
      <trkpt lat="50.28226" lon="5.11228">
        <ele>275.91368973354</ele>
        <time>2017-06-12T17:04:04Z</time>
      </trkpt>
      <trkpt lat="50.28181" lon="5.11204">
        <ele>273.20625246411</ele>
        <time>2017-06-12T17:04:09Z</time>
      </trkpt>
      <trkpt lat="50.28152" lon="5.11191">
        <ele>272.12835299265</ele>
        <time>2017-06-12T17:04:13Z</time>
      </trkpt>
      <trkpt lat="50.2812" lon="5.11184">
        <ele>272.1023334189</ele>
        <time>2017-06-12T17:04:18Z</time>
      </trkpt>
      <trkpt lat="50.28086" lon="5.11176">
        <ele>271.93287892774</ele>
        <time>2017-06-12T17:04:23Z</time>
      </trkpt>
      <trkpt lat="50.28059" lon="5.11168">
        <ele>271.75245780638</ele>
        <time>2017-06-12T17:04:27Z</time>
      </trkpt>
      <trkpt lat="50.28028" lon="5.11161">
        <ele>272.91659264524</ele>
        <time>2017-06-12T17:04:32Z</time>
      </trkpt>
      <trkpt lat="50.28003" lon="5.11155">
        <ele>273.88301521325</ele>
        <time>2017-06-12T17:04:36Z</time>
      </trkpt>
      <trkpt lat="50.27974" lon="5.11149">
        <ele>275.68265027212</ele>
        <time>2017-06-12T17:04:41Z</time>
      </trkpt>
      <trkpt lat="50.27951" lon="5.11144">
        <ele>277.21717660354</ele>
        <time>2017-06-12T17:04:45Z</time>
      </trkpt>
      <trkpt lat="50.27921" lon="5.11141">
        <ele>278.86913888603</ele>
        <time>2017-06-12T17:04:50Z</time>
      </trkpt>
      <trkpt lat="50.27895" lon="5.1114">
        <ele>279.35368435377</ele>
        <time>2017-06-12T17:04:54Z</time>
      </trkpt>
      <trkpt lat="50.27871" lon="5.11142">
        <ele>279.96539977592</ele>
        <time>2017-06-12T17:04:58Z</time>
      </trkpt>
      <trkpt lat="50.27846" lon="5.11143">
        <ele>280.52072375009</ele>
        <time>2017-06-12T17:05:02Z</time>
      </trkpt>
      <trkpt lat="50.27814" lon="5.11143">
        <ele>280.82731115917</ele>
        <time>2017-06-12T17:05:07Z</time>
      </trkpt>
      <trkpt lat="50.27789" lon="5.11143">
        <ele>281.61520227312</ele>
        <time>2017-06-12T17:05:11Z</time>
      </trkpt>
      <trkpt lat="50.27757" lon="5.11143">
        <ele>282.60616715315</ele>
        <time>2017-06-12T17:05:16Z</time>
      </trkpt>
      <trkpt lat="50.27733" lon="5.11143">
        <ele>283.5659056336</ele>
        <time>2017-06-12T17:05:20Z</time>
      </trkpt>
      <trkpt lat="50.27709" lon="5.11143">
        <ele>284.92414171257</ele>
        <time>2017-06-12T17:05:24Z</time>
      </trkpt>
      <trkpt lat="50.27686" lon="5.11142">
        <ele>286.20873649226</ele>
        <time>2017-06-12T17:05:28Z</time>
      </trkpt>
      <trkpt lat="50.27656" lon="5.11142">
        <ele>287.44357199286</ele>
        <time>2017-06-12T17:05:33Z</time>
      </trkpt>
      <trkpt lat="50.27626" lon="5.11142">
        <ele>289.01438039523</ele>
        <time>2017-06-12T17:05:38Z</time>
      </trkpt>
      <trkpt lat="50.27603" lon="5.11142">
        <ele>290.48359042372</ele>
        <time>2017-06-12T17:05:42Z</time>
      </trkpt>
      <trkpt lat="50.27576" lon="5.11141">
        <ele>292.28804602128</ele>
        <time>2017-06-12T17:05:47Z</time>
      </trkpt>
      <trkpt lat="50.27554" lon="5.11141">
        <ele>293.51102117779</ele>
        <time>2017-06-12T17:05:51Z</time>
      </trkpt>
      <trkpt lat="50.27528" lon="5.11141">
        <ele>294.24810327867</ele>
        <time>2017-06-12T17:05:56Z</time>
      </trkpt>
      <trkpt lat="50.2751" lon="5.11141">
        <ele>295.80435425199</ele>
        <time>2017-06-12T17:06:00Z</time>
      </trkpt>
      <trkpt lat="50.27484" lon="5.11142">
        <ele>297.19088643354</ele>
        <time>2017-06-12T17:06:05Z</time>
      </trkpt>
      <trkpt lat="50.27459" lon="5.11143">
        <ele>296.86477381285</ele>
        <time>2017-06-12T17:06:09Z</time>
      </trkpt>
      <trkpt lat="50.27439" lon="5.11145">
        <ele>296.65638966521</ele>
        <time>2017-06-12T17:06:13Z</time>
      </trkpt>
      <trkpt lat="50.27413" lon="5.11147">
        <ele>298.71763061044</ele>
        <time>2017-06-12T17:06:18Z</time>
      </trkpt>
      <trkpt lat="50.27388" lon="5.11149">
        <ele>299.90536640619</ele>
        <time>2017-06-12T17:06:23Z</time>
      </trkpt>
      <trkpt lat="50.27376" lon="5.11149">
        <ele>299.81517743251</ele>
        <time>2017-06-12T17:06:27Z</time>
      </trkpt>
      <trkpt lat="50.27382" lon="5.11166">
        <ele>302.89197059013</ele>
        <time>2017-06-12T17:06:31Z</time>
      </trkpt>
      <trkpt lat="50.27393" lon="5.11189">
        <ele>305.84708622967</ele>
        <time>2017-06-12T17:06:35Z</time>
      </trkpt>
      <trkpt lat="50.27406" lon="5.11213">
        <ele>307.54048502827</ele>
        <time>2017-06-12T17:06:39Z</time>
      </trkpt>
      <trkpt lat="50.27421" lon="5.11242">
        <ele>309.49980755212</ele>
        <time>2017-06-12T17:06:44Z</time>
      </trkpt>
      <trkpt lat="50.27438" lon="5.11275">
        <ele>312.23314155914</ele>
        <time>2017-06-12T17:06:49Z</time>
      </trkpt>
      <trkpt lat="50.27456" lon="5.11306">
        <ele>314.08111115458</ele>
        <time>2017-06-12T17:06:53Z</time>
      </trkpt>
      <trkpt lat="50.27472" lon="5.11342">
        <ele>313.45992371239</ele>
        <time>2017-06-12T17:06:58Z</time>
      </trkpt>
      <trkpt lat="50.27486" lon="5.11369">
        <ele>313.95560267125</ele>
        <time>2017-06-12T17:07:02Z</time>
      </trkpt>
      <trkpt lat="50.275" lon="5.11394">
        <ele>315.76078828954</ele>
        <time>2017-06-12T17:07:06Z</time>
      </trkpt>
      <trkpt lat="50.27519" lon="5.11428">
        <ele>316.92987252942</ele>
        <time>2017-06-12T17:07:11Z</time>
      </trkpt>
      <trkpt lat="50.27538" lon="5.11466">
        <ele>317.7987559533</ele>
        <time>2017-06-12T17:07:16Z</time>
      </trkpt>
      <trkpt lat="50.27553" lon="5.11497">
        <ele>317.45705738614</ele>
        <time>2017-06-12T17:07:20Z</time>
      </trkpt>
      <trkpt lat="50.27568" lon="5.11524">
        <ele>318.8399107262</ele>
        <time>2017-06-12T17:07:24Z</time>
      </trkpt>
      <trkpt lat="50.27586" lon="5.11562">
        <ele>321.30656418363</ele>
        <time>2017-06-12T17:07:29Z</time>
      </trkpt>
      <trkpt lat="50.27604" lon="5.11595">
        <ele>320.35750347847</ele>
        <time>2017-06-12T17:07:33Z</time>
      </trkpt>
      <trkpt lat="50.27624" lon="5.11631">
        <ele>320.08695139829</ele>
        <time>2017-06-12T17:07:38Z</time>
      </trkpt>
      <trkpt lat="50.2764" lon="5.11661">
        <ele>320.64961931919</ele>
        <time>2017-06-12T17:07:42Z</time>
      </trkpt>
      <trkpt lat="50.27661" lon="5.11697">
        <ele>322.34463703363</ele>
        <time>2017-06-12T17:07:47Z</time>
      </trkpt>
      <trkpt lat="50.27677" lon="5.11728">
        <ele>322.81069469606</ele>
        <time>2017-06-12T17:07:51Z</time>
      </trkpt>
      <trkpt lat="50.27694" lon="5.11761">
        <ele>322.08145151449</ele>
        <time>2017-06-12T17:07:55Z</time>
      </trkpt>
      <trkpt lat="50.27716" lon="5.118">
        <ele>321.17895643609</ele>
        <time>2017-06-12T17:08:00Z</time>
      </trkpt>
      <trkpt lat="50.27736" lon="5.11838">
        <ele>320.71591830555</ele>
        <time>2017-06-12T17:08:05Z</time>
      </trkpt>
      <trkpt lat="50.27751" lon="5.11867">
        <ele>320.89650332996</ele>
        <time>2017-06-12T17:08:09Z</time>
      </trkpt>
      <trkpt lat="50.27771" lon="5.11902">
        <ele>321.6264601448</ele>
        <time>2017-06-12T17:08:14Z</time>
      </trkpt>
      <trkpt lat="50.27789" lon="5.11928">
        <ele>323.47069057375</ele>
        <time>2017-06-12T17:08:18Z</time>
      </trkpt>
      <trkpt lat="50.27816" lon="5.1197">
        <ele>323.47846774833</ele>
        <time>2017-06-12T17:08:23Z</time>
      </trkpt>
      <trkpt lat="50.27841" lon="5.12013">
        <ele>319.10299686098</ele>
        <time>2017-06-12T17:08:28Z</time>
      </trkpt>
      <trkpt lat="50.27861" lon="5.12043">
        <ele>316.39888739615</ele>
        <time>2017-06-12T17:08:32Z</time>
      </trkpt>
      <trkpt lat="50.27881" lon="5.12072">
        <ele>315.77593539386</ele>
        <time>2017-06-12T17:08:36Z</time>
      </trkpt>
      <trkpt lat="50.27902" lon="5.121">
        <ele>316.05007932365</ele>
        <time>2017-06-12T17:08:40Z</time>
      </trkpt>
      <trkpt lat="50.27927" lon="5.12134">
        <ele>315.93123634232</ele>
        <time>2017-06-12T17:08:45Z</time>
      </trkpt>
      <trkpt lat="50.2794" lon="5.12158">
        <ele>316.0771799898</ele>
        <time>2017-06-12T17:08:49Z</time>
      </trkpt>
      <trkpt lat="50.27926" lon="5.12183">
        <ele>314.31617921448</ele>
        <time>2017-06-12T17:08:54Z</time>
      </trkpt>
      <trkpt lat="50.27906" lon="5.12206">
        <ele>312.9717976167</ele>
        <time>2017-06-12T17:08:58Z</time>
      </trkpt>
      <trkpt lat="50.27883" lon="5.12229">
        <ele>312.67742419085</ele>
        <time>2017-06-12T17:09:02Z</time>
      </trkpt>
      <trkpt lat="50.27852" lon="5.1225">
        <ele>311.52478975469</ele>
        <time>2017-06-12T17:09:07Z</time>
      </trkpt>
      <trkpt lat="50.27829" lon="5.12263">
        <ele>311.09792769719</ele>
        <time>2017-06-12T17:09:11Z</time>
      </trkpt>
      <trkpt lat="50.27799" lon="5.12282">
        <ele>310.40426339651</ele>
        <time>2017-06-12T17:09:16Z</time>
      </trkpt>
      <trkpt lat="50.27778" lon="5.12301">
        <ele>309.78893479321</ele>
        <time>2017-06-12T17:09:20Z</time>
      </trkpt>
      <trkpt lat="50.27757" lon="5.12319">
        <ele>309.37603067417</ele>
        <time>2017-06-12T17:09:24Z</time>
      </trkpt>
      <trkpt lat="50.27732" lon="5.12337">
        <ele>308.99781803611</ele>
        <time>2017-06-12T17:09:29Z</time>
      </trkpt>
      <trkpt lat="50.27714" lon="5.12362">
        <ele>309.20210761822</ele>
        <time>2017-06-12T17:09:33Z</time>
      </trkpt>
      <trkpt lat="50.27694" lon="5.12407">
        <ele>309.39767974985</ele>
        <time>2017-06-12T17:09:38Z</time>
      </trkpt>
      <trkpt lat="50.27676" lon="5.12445">
        <ele>306.46850661188</ele>
        <time>2017-06-12T17:09:43Z</time>
      </trkpt>
      <trkpt lat="50.27664" lon="5.12482">
        <ele>304.25520998449</ele>
        <time>2017-06-12T17:09:48Z</time>
      </trkpt>
      <trkpt lat="50.27662" lon="5.12518">
        <ele>305.33230336613</ele>
        <time>2017-06-12T17:09:52Z</time>
      </trkpt>
      <trkpt lat="50.27658" lon="5.12559">
        <ele>305.2590970856</ele>
        <time>2017-06-12T17:09:56Z</time>
      </trkpt>
      <trkpt lat="50.27643" lon="5.12615">
        <ele>302.10691540738</ele>
        <time>2017-06-12T17:10:01Z</time>
      </trkpt>
      <trkpt lat="50.27636" lon="5.12648">
        <ele>300.61216854443</ele>
        <time>2017-06-12T17:10:05Z</time>
      </trkpt>
      <trkpt lat="50.2763" lon="5.12684">
        <ele>300.24831846837</ele>
        <time>2017-06-12T17:10:09Z</time>
      </trkpt>
      <trkpt lat="50.27626" lon="5.12732">
        <ele>297.0848305309</ele>
        <time>2017-06-12T17:10:13Z</time>
      </trkpt>
      <trkpt lat="50.27619" lon="5.12784">
        <ele>292.57007139383</ele>
        <time>2017-06-12T17:10:18Z</time>
      </trkpt>
      <trkpt lat="50.27614" lon="5.12823">
        <ele>289.98277892976</ele>
        <time>2017-06-12T17:10:22Z</time>
      </trkpt>
      <trkpt lat="50.27612" lon="5.1286">
        <ele>287.73905248508</ele>
        <time>2017-06-12T17:10:26Z</time>
      </trkpt>
      <trkpt lat="50.27617" lon="5.12901">
        <ele>286.76841079747</ele>
        <time>2017-06-12T17:10:31Z</time>
      </trkpt>
      <trkpt lat="50.27624" lon="5.12942">
        <ele>286.93057497727</ele>
        <time>2017-06-12T17:10:35Z</time>
      </trkpt>
      <trkpt lat="50.27634" lon="5.12984">
        <ele>287.18358562775</ele>
        <time>2017-06-12T17:10:39Z</time>
      </trkpt>
      <trkpt lat="50.27646" lon="5.13022">
        <ele>287.09850249482</ele>
        <time>2017-06-12T17:10:43Z</time>
      </trkpt>
      <trkpt lat="50.27665" lon="5.13065">
        <ele>284.98106230893</ele>
        <time>2017-06-12T17:10:48Z</time>
      </trkpt>
      <trkpt lat="50.27681" lon="5.13095">
        <ele>283.28652839849</ele>
        <time>2017-06-12T17:10:52Z</time>
      </trkpt>
      <trkpt lat="50.27687" lon="5.13124">
        <ele>281.36232852657</ele>
        <time>2017-06-12T17:10:57Z</time>
      </trkpt>
      <trkpt lat="50.27667" lon="5.13154">
        <ele>279.98044757096</ele>
        <time>2017-06-12T17:11:01Z</time>
      </trkpt>
      <trkpt lat="50.27644" lon="5.1319">
        <ele>277.52789483411</ele>
        <time>2017-06-12T17:11:05Z</time>
      </trkpt>
      <trkpt lat="50.27616" lon="5.13225">
        <ele>276.21287646591</ele>
        <time>2017-06-12T17:11:10Z</time>
      </trkpt>
      <trkpt lat="50.27597" lon="5.13248">
        <ele>276.25711130596</ele>
        <time>2017-06-12T17:11:14Z</time>
      </trkpt>
      <trkpt lat="50.27581" lon="5.13276">
        <ele>276.46619445842</ele>
        <time>2017-06-12T17:11:18Z</time>
      </trkpt>
      <trkpt lat="50.2757" lon="5.13318">
        <ele>277.52824237946</ele>
        <time>2017-06-12T17:11:23Z</time>
      </trkpt>
      <trkpt lat="50.27571" lon="5.13357">
        <ele>280.82481305519</ele>
        <time>2017-06-12T17:11:28Z</time>
      </trkpt>
      <trkpt lat="50.27573" lon="5.13385">
        <ele>281.02939722611</ele>
        <time>2017-06-12T17:11:32Z</time>
      </trkpt>
      <trkpt lat="50.27581" lon="5.13418">
        <ele>284.28511840694</ele>
        <time>2017-06-12T17:11:37Z</time>
      </trkpt>
      <trkpt lat="50.27586" lon="5.13445">
        <ele>285.61442138878</ele>
        <time>2017-06-12T17:11:41Z</time>
      </trkpt>
      <trkpt lat="50.2759" lon="5.13468">
        <ele>288.27562243505</ele>
        <time>2017-06-12T17:11:45Z</time>
      </trkpt>
      <trkpt lat="50.27596" lon="5.13497">
        <ele>290.72814466358</ele>
        <time>2017-06-12T17:11:49Z</time>
      </trkpt>
      <trkpt lat="50.276" lon="5.13527">
        <ele>292.52618831939</ele>
        <time>2017-06-12T17:11:53Z</time>
      </trkpt>
      <trkpt lat="50.27604" lon="5.13561">
        <ele>292.62309464955</ele>
        <time>2017-06-12T17:11:57Z</time>
      </trkpt>
      <trkpt lat="50.27606" lon="5.13597">
        <ele>293.03398323809</ele>
        <time>2017-06-12T17:12:01Z</time>
      </trkpt>
      <trkpt lat="50.27594" lon="5.13636">
        <ele>293.58390571963</ele>
        <time>2017-06-12T17:12:06Z</time>
      </trkpt>
      <trkpt lat="50.27573" lon="5.13665">
        <ele>293.03160598147</ele>
        <time>2017-06-12T17:12:11Z</time>
      </trkpt>
      <trkpt lat="50.27558" lon="5.13683">
        <ele>295.41378562246</ele>
        <time>2017-06-12T17:12:15Z</time>
      </trkpt>
      <trkpt lat="50.27538" lon="5.13705">
        <ele>299.36178324553</ele>
        <time>2017-06-12T17:12:20Z</time>
      </trkpt>
      <trkpt lat="50.27521" lon="5.13722">
        <ele>301.51649364375</ele>
        <time>2017-06-12T17:12:24Z</time>
      </trkpt>
      <trkpt lat="50.27503" lon="5.13743">
        <ele>302.7521869915</ele>
        <time>2017-06-12T17:12:28Z</time>
      </trkpt>
      <trkpt lat="50.27486" lon="5.13772">
        <ele>303.444487774</ele>
        <time>2017-06-12T17:12:32Z</time>
      </trkpt>
      <trkpt lat="50.27465" lon="5.13813">
        <ele>304.72655706812</ele>
        <time>2017-06-12T17:12:37Z</time>
      </trkpt>
      <trkpt lat="50.27445" lon="5.13857">
        <ele>304.93947337491</ele>
        <time>2017-06-12T17:12:42Z</time>
      </trkpt>
      <trkpt lat="50.27428" lon="5.1389">
        <ele>305.32790876796</ele>
        <time>2017-06-12T17:12:46Z</time>
      </trkpt>
      <trkpt lat="50.27411" lon="5.13922">
        <ele>305.85519636689</ele>
        <time>2017-06-12T17:12:50Z</time>
      </trkpt>
      <trkpt lat="50.27388" lon="5.1396">
        <ele>305.81101165125</ele>
        <time>2017-06-12T17:12:55Z</time>
      </trkpt>
      <trkpt lat="50.27373" lon="5.13986">
        <ele>306.42334851706</ele>
        <time>2017-06-12T17:12:59Z</time>
      </trkpt>
      <trkpt lat="50.27358" lon="5.14017">
        <ele>309.55768937376</ele>
        <time>2017-06-12T17:13:04Z</time>
      </trkpt>
      <trkpt lat="50.27347" lon="5.1405">
        <ele>310.15934295426</ele>
        <time>2017-06-12T17:13:09Z</time>
      </trkpt>
      <trkpt lat="50.27339" lon="5.14074">
        <ele>310.6743952556</ele>
        <time>2017-06-12T17:13:13Z</time>
      </trkpt>
      <trkpt lat="50.27329" lon="5.141">
        <ele>311.56115303566</ele>
        <time>2017-06-12T17:13:18Z</time>
      </trkpt>
      <trkpt lat="50.27321" lon="5.14122">
        <ele>311.86065096268</ele>
        <time>2017-06-12T17:13:22Z</time>
      </trkpt>
      <trkpt lat="50.2731" lon="5.14147">
        <ele>314.50237910441</ele>
        <time>2017-06-12T17:13:27Z</time>
      </trkpt>
      <trkpt lat="50.27299" lon="5.14169">
        <ele>314.32658441096</ele>
        <time>2017-06-12T17:13:31Z</time>
      </trkpt>
      <trkpt lat="50.2729" lon="5.14193">
        <ele>314.47133513967</ele>
        <time>2017-06-12T17:13:35Z</time>
      </trkpt>
      <trkpt lat="50.27281" lon="5.14216">
        <ele>315.60842372065</ele>
        <time>2017-06-12T17:13:39Z</time>
      </trkpt>
      <trkpt lat="50.27271" lon="5.14239">
        <ele>317.36881414186</ele>
        <time>2017-06-12T17:13:43Z</time>
      </trkpt>
      <trkpt lat="50.27261" lon="5.14265">
        <ele>318.65881092604</ele>
        <time>2017-06-12T17:13:47Z</time>
      </trkpt>
      <trkpt lat="50.27255" lon="5.14293">
        <ele>318.50654841281</ele>
        <time>2017-06-12T17:13:52Z</time>
      </trkpt>
      <trkpt lat="50.2726" lon="5.14322">
        <ele>317.96917005678</ele>
        <time>2017-06-12T17:13:56Z</time>
      </trkpt>
      <trkpt lat="50.27269" lon="5.14363">
        <ele>318.70272638421</ele>
        <time>2017-06-12T17:14:01Z</time>
      </trkpt>
      <trkpt lat="50.27275" lon="5.14398">
        <ele>319.85391708827</ele>
        <time>2017-06-12T17:14:05Z</time>
      </trkpt>
      <trkpt lat="50.2728" lon="5.14435">
        <ele>320.84641645403</ele>
        <time>2017-06-12T17:14:09Z</time>
      </trkpt>
      <trkpt lat="50.27286" lon="5.14474">
        <ele>320.75372444368</ele>
        <time>2017-06-12T17:14:13Z</time>
      </trkpt>
      <trkpt lat="50.27287" lon="5.14517">
        <ele>322.21963816913</ele>
        <time>2017-06-12T17:14:18Z</time>
      </trkpt>
      <trkpt lat="50.27268" lon="5.1454">
        <ele>324.01714577843</ele>
        <time>2017-06-12T17:14:22Z</time>
      </trkpt>
      <trkpt lat="50.2724" lon="5.14567">
        <ele>324.42147201503</ele>
        <time>2017-06-12T17:14:26Z</time>
      </trkpt>
      <trkpt lat="50.27202" lon="5.14605">
        <ele>324.14296108935</ele>
        <time>2017-06-12T17:14:31Z</time>
      </trkpt>
      <trkpt lat="50.27158" lon="5.14647">
        <ele>322.50784483192</ele>
        <time>2017-06-12T17:14:36Z</time>
      </trkpt>
      <trkpt lat="50.27115" lon="5.14687">
        <ele>320.1398851306</ele>
        <time>2017-06-12T17:14:41Z</time>
      </trkpt>
      <trkpt lat="50.27087" lon="5.14707">
        <ele>319.66360488239</ele>
        <time>2017-06-12T17:14:45Z</time>
      </trkpt>
      <trkpt lat="50.27065" lon="5.14722">
        <ele>321.76516372325</ele>
        <time>2017-06-12T17:14:49Z</time>
      </trkpt>
      <trkpt lat="50.27045" lon="5.14736">
        <ele>323.89174846976</ele>
        <time>2017-06-12T17:14:53Z</time>
      </trkpt>
      <trkpt lat="50.27019" lon="5.14753">
        <ele>323.57567996858</ele>
        <time>2017-06-12T17:14:58Z</time>
      </trkpt>
      <trkpt lat="50.26998" lon="5.14766">
        <ele>324.55977439608</ele>
        <time>2017-06-12T17:15:02Z</time>
      </trkpt>
      <trkpt lat="50.26979" lon="5.14781">
        <ele>325.99940797309</ele>
        <time>2017-06-12T17:15:06Z</time>
      </trkpt>
      <trkpt lat="50.2696" lon="5.14794">
        <ele>327.87517616683</ele>
        <time>2017-06-12T17:15:10Z</time>
      </trkpt>
      <trkpt lat="50.2694" lon="5.14807">
        <ele>329.24347922417</ele>
        <time>2017-06-12T17:15:14Z</time>
      </trkpt>
      <trkpt lat="50.26912" lon="5.14822">
        <ele>329.7169005201</ele>
        <time>2017-06-12T17:15:19Z</time>
      </trkpt>
      <trkpt lat="50.26888" lon="5.14824">
        <ele>329.62471530841</ele>
        <time>2017-06-12T17:15:23Z</time>
      </trkpt>
      <trkpt lat="50.26873" lon="5.14798">
        <ele>330.19153284785</ele>
        <time>2017-06-12T17:15:27Z</time>
      </trkpt>
      <trkpt lat="50.26857" lon="5.14755">
        <ele>329.64633117897</ele>
        <time>2017-06-12T17:15:32Z</time>
      </trkpt>
      <trkpt lat="50.26842" lon="5.14717">
        <ele>327.44837614493</ele>
        <time>2017-06-12T17:15:36Z</time>
      </trkpt>
      <trkpt lat="50.26829" lon="5.14682">
        <ele>326.14747815078</ele>
        <time>2017-06-12T17:15:40Z</time>
      </trkpt>
      <trkpt lat="50.26813" lon="5.14638">
        <ele>325.45167757027</ele>
        <time>2017-06-12T17:15:45Z</time>
      </trkpt>
      <trkpt lat="50.26797" lon="5.14592">
        <ele>325.26834575149</ele>
        <time>2017-06-12T17:15:50Z</time>
      </trkpt>
      <trkpt lat="50.26784" lon="5.14556">
        <ele>325.04923036378</ele>
        <time>2017-06-12T17:15:54Z</time>
      </trkpt>
      <trkpt lat="50.26773" lon="5.14522">
        <ele>327.19454613736</ele>
        <time>2017-06-12T17:15:58Z</time>
      </trkpt>
      <trkpt lat="50.26758" lon="5.14484">
        <ele>327.14694327829</ele>
        <time>2017-06-12T17:16:02Z</time>
      </trkpt>
      <trkpt lat="50.26743" lon="5.14445">
        <ele>324.96459705987</ele>
        <time>2017-06-12T17:16:06Z</time>
      </trkpt>
      <trkpt lat="50.26728" lon="5.14407">
        <ele>322.74677292471</ele>
        <time>2017-06-12T17:16:10Z</time>
      </trkpt>
      <trkpt lat="50.26709" lon="5.14361">
        <ele>321.79274706811</ele>
        <time>2017-06-12T17:16:15Z</time>
      </trkpt>
      <trkpt lat="50.26695" lon="5.14323">
        <ele>321.42968934778</ele>
        <time>2017-06-12T17:16:19Z</time>
      </trkpt>
      <trkpt lat="50.26676" lon="5.14279">
        <ele>320.91812068971</ele>
        <time>2017-06-12T17:16:24Z</time>
      </trkpt>
      <trkpt lat="50.26657" lon="5.14236">
        <ele>321.1070507487</ele>
        <time>2017-06-12T17:16:29Z</time>
      </trkpt>
      <trkpt lat="50.26637" lon="5.14191">
        <ele>321.18022010921</ele>
        <time>2017-06-12T17:16:34Z</time>
      </trkpt>
      <trkpt lat="50.26617" lon="5.14146">
        <ele>320.82433814897</ele>
        <time>2017-06-12T17:16:39Z</time>
      </trkpt>
      <trkpt lat="50.26602" lon="5.1411">
        <ele>320.51415034661</ele>
        <time>2017-06-12T17:16:43Z</time>
      </trkpt>
      <trkpt lat="50.26587" lon="5.14076">
        <ele>319.9139908837</ele>
        <time>2017-06-12T17:16:47Z</time>
      </trkpt>
      <trkpt lat="50.26568" lon="5.14031">
        <ele>319.02765554853</ele>
        <time>2017-06-12T17:16:52Z</time>
      </trkpt>
      <trkpt lat="50.26552" lon="5.13994">
        <ele>318.49394106827</ele>
        <time>2017-06-12T17:16:56Z</time>
      </trkpt>
      <trkpt lat="50.26533" lon="5.13948">
        <ele>317.60297053997</ele>
        <time>2017-06-12T17:17:01Z</time>
      </trkpt>
      <trkpt lat="50.26513" lon="5.13901">
        <ele>316.9372824796</ele>
        <time>2017-06-12T17:17:06Z</time>
      </trkpt>
      <trkpt lat="50.26495" lon="5.13861">
        <ele>316.7127511148</ele>
        <time>2017-06-12T17:17:10Z</time>
      </trkpt>
      <trkpt lat="50.26478" lon="5.13821">
        <ele>316.4180649998</ele>
        <time>2017-06-12T17:17:14Z</time>
      </trkpt>
      <trkpt lat="50.26458" lon="5.13776">
        <ele>314.9602264326</ele>
        <time>2017-06-12T17:17:19Z</time>
      </trkpt>
      <trkpt lat="50.26438" lon="5.13729">
        <ele>312.93673775433</ele>
        <time>2017-06-12T17:17:24Z</time>
      </trkpt>
      <trkpt lat="50.26423" lon="5.13693">
        <ele>311.60022362272</ele>
        <time>2017-06-12T17:17:28Z</time>
      </trkpt>
      <trkpt lat="50.26402" lon="5.13646">
        <ele>309.62661253171</ele>
        <time>2017-06-12T17:17:33Z</time>
      </trkpt>
      <trkpt lat="50.26382" lon="5.13596">
        <ele>307.95174114712</ele>
        <time>2017-06-12T17:17:38Z</time>
      </trkpt>
      <trkpt lat="50.26364" lon="5.13556">
        <ele>307.1533996388</ele>
        <time>2017-06-12T17:17:42Z</time>
      </trkpt>
      <trkpt lat="50.26347" lon="5.13521">
        <ele>306.20712671374</ele>
        <time>2017-06-12T17:17:46Z</time>
      </trkpt>
      <trkpt lat="50.26326" lon="5.13488">
        <ele>306.93241079714</ele>
        <time>2017-06-12T17:17:50Z</time>
      </trkpt>
      <trkpt lat="50.263" lon="5.1345">
        <ele>305.66655921655</ele>
        <time>2017-06-12T17:17:55Z</time>
      </trkpt>
      <trkpt lat="50.26278" lon="5.13418">
        <ele>304.32550942628</ele>
        <time>2017-06-12T17:17:59Z</time>
      </trkpt>
      <trkpt lat="50.26249" lon="5.13379">
        <ele>302.67889500989</ele>
        <time>2017-06-12T17:18:04Z</time>
      </trkpt>
      <trkpt lat="50.26227" lon="5.1335">
        <ele>300.68030652452</ele>
        <time>2017-06-12T17:18:08Z</time>
      </trkpt>
      <trkpt lat="50.26207" lon="5.13325">
        <ele>299.95028216171</ele>
        <time>2017-06-12T17:18:12Z</time>
      </trkpt>
      <trkpt lat="50.26183" lon="5.13294">
        <ele>298.86599418166</ele>
        <time>2017-06-12T17:18:16Z</time>
      </trkpt>
      <trkpt lat="50.26162" lon="5.13264">
        <ele>297.14743201443</ele>
        <time>2017-06-12T17:18:20Z</time>
      </trkpt>
      <trkpt lat="50.26143" lon="5.13232">
        <ele>294.05601517672</ele>
        <time>2017-06-12T17:18:24Z</time>
      </trkpt>
      <trkpt lat="50.26132" lon="5.13182">
        <ele>292.54948275579</ele>
        <time>2017-06-12T17:18:29Z</time>
      </trkpt>
      <trkpt lat="50.26122" lon="5.13156">
        <ele>292.99914056262</ele>
        <time>2017-06-12T17:18:33Z</time>
      </trkpt>
      <trkpt lat="50.26106" lon="5.1316">
        <ele>292.33846286331</ele>
        <time>2017-06-12T17:18:37Z</time>
      </trkpt>
      <trkpt lat="50.26096" lon="5.13184">
        <ele>289.9931735938</ele>
        <time>2017-06-12T17:18:41Z</time>
      </trkpt>
      <trkpt lat="50.26089" lon="5.1322">
        <ele>288.12547645766</ele>
        <time>2017-06-12T17:18:45Z</time>
      </trkpt>
      <trkpt lat="50.26084" lon="5.1326">
        <ele>286.5606226056</ele>
        <time>2017-06-12T17:18:49Z</time>
      </trkpt>
      <trkpt lat="50.26065" lon="5.13315">
        <ele>284.31176504064</ele>
        <time>2017-06-12T17:18:54Z</time>
      </trkpt>
      <trkpt lat="50.2605" lon="5.13374">
        <ele>281.98115388104</ele>
        <time>2017-06-12T17:18:59Z</time>
      </trkpt>
      <trkpt lat="50.26041" lon="5.13423">
        <ele>278.72918648844</ele>
        <time>2017-06-12T17:19:03Z</time>
      </trkpt>
      <trkpt lat="50.26035" lon="5.1347">
        <ele>281.01472239135</ele>
        <time>2017-06-12T17:19:07Z</time>
      </trkpt>
      <trkpt lat="50.2603" lon="5.13514">
        <ele>281.01241220747</ele>
        <time>2017-06-12T17:19:11Z</time>
      </trkpt>
      <trkpt lat="50.26028" lon="5.13555">
        <ele>281.83548790971</ele>
        <time>2017-06-12T17:19:15Z</time>
      </trkpt>
      <trkpt lat="50.26013" lon="5.13578">
        <ele>281.90529889596</ele>
        <time>2017-06-12T17:19:19Z</time>
      </trkpt>
      <trkpt lat="50.25992" lon="5.13582">
        <ele>280.61237146709</ele>
        <time>2017-06-12T17:19:24Z</time>
      </trkpt>
      <trkpt lat="50.25974" lon="5.13613">
        <ele>279.30195000235</ele>
        <time>2017-06-12T17:19:29Z</time>
      </trkpt>
      <trkpt lat="50.25956" lon="5.1364">
        <ele>279.99599849085</ele>
        <time>2017-06-12T17:19:33Z</time>
      </trkpt>
      <trkpt lat="50.25933" lon="5.13661">
        <ele>281.21360911835</ele>
        <time>2017-06-12T17:19:37Z</time>
      </trkpt>
      <trkpt lat="50.25909" lon="5.13676">
        <ele>283.58209510049</ele>
        <time>2017-06-12T17:19:41Z</time>
      </trkpt>
      <trkpt lat="50.2588" lon="5.13676">
        <ele>282.5900178548</ele>
        <time>2017-06-12T17:19:45Z</time>
      </trkpt>
      <trkpt lat="50.25846" lon="5.13674">
        <ele>279.4871997808</ele>
        <time>2017-06-12T17:19:50Z</time>
      </trkpt>
      <trkpt lat="50.25815" lon="5.13674">
        <ele>278.26335545366</ele>
        <time>2017-06-12T17:19:55Z</time>
      </trkpt>
      <trkpt lat="50.25795" lon="5.13666">
        <ele>280.15658077563</ele>
        <time>2017-06-12T17:19:59Z</time>
      </trkpt>
      <trkpt lat="50.25786" lon="5.13653">
        <ele>281.26999184047</ele>
        <time>2017-06-12T17:20:03Z</time>
      </trkpt>
      <trkpt lat="50.25777" lon="5.13631">
        <ele>282.46744553636</ele>
        <time>2017-06-12T17:20:08Z</time>
      </trkpt>
      <trkpt lat="50.2577" lon="5.13609">
        <ele>282.86290538539</ele>
        <time>2017-06-12T17:20:12Z</time>
      </trkpt>
      <trkpt lat="50.25765" lon="5.1359">
        <ele>284.20990129221</ele>
        <time>2017-06-12T17:20:16Z</time>
      </trkpt>
      <trkpt lat="50.2576" lon="5.1357">
        <ele>288.35732582076</ele>
        <time>2017-06-12T17:20:20Z</time>
      </trkpt>
      <trkpt lat="50.25752" lon="5.13551">
        <ele>291.38542827114</ele>
        <time>2017-06-12T17:20:24Z</time>
      </trkpt>
      <trkpt lat="50.25741" lon="5.13532">
        <ele>293.92863959329</ele>
        <time>2017-06-12T17:20:28Z</time>
      </trkpt>
      <trkpt lat="50.25728" lon="5.13507">
        <ele>295.50803222779</ele>
        <time>2017-06-12T17:20:33Z</time>
      </trkpt>
      <trkpt lat="50.25719" lon="5.13489">
        <ele>297.42372224439</ele>
        <time>2017-06-12T17:20:37Z</time>
      </trkpt>
      <trkpt lat="50.25706" lon="5.13469">
        <ele>299.12758348016</ele>
        <time>2017-06-12T17:20:42Z</time>
      </trkpt>
      <trkpt lat="50.25697" lon="5.13453">
        <ele>299.40492606942</ele>
        <time>2017-06-12T17:20:46Z</time>
      </trkpt>
      <trkpt lat="50.25684" lon="5.13434">
        <ele>299.88172210284</ele>
        <time>2017-06-12T17:20:51Z</time>
      </trkpt>
      <trkpt lat="50.25675" lon="5.13419">
        <ele>300.31286985909</ele>
        <time>2017-06-12T17:20:55Z</time>
      </trkpt>
      <trkpt lat="50.25664" lon="5.13403">
        <ele>304.2734120511</ele>
        <time>2017-06-12T17:20:59Z</time>
      </trkpt>
      <trkpt lat="50.25652" lon="5.13386">
        <ele>306.40546567064</ele>
        <time>2017-06-12T17:21:03Z</time>
      </trkpt>
      <trkpt lat="50.25639" lon="5.1337">
        <ele>307.89174041831</ele>
        <time>2017-06-12T17:21:07Z</time>
      </trkpt>
      <trkpt lat="50.25627" lon="5.13354">
        <ele>309.11706285283</ele>
        <time>2017-06-12T17:21:11Z</time>
      </trkpt>
      <trkpt lat="50.25614" lon="5.13338">
        <ele>310.35861635191</ele>
        <time>2017-06-12T17:21:15Z</time>
      </trkpt>
      <trkpt lat="50.25599" lon="5.13321">
        <ele>310.79861201911</ele>
        <time>2017-06-12T17:21:19Z</time>
      </trkpt>
      <trkpt lat="50.25583" lon="5.13303">
        <ele>310.45111706647</ele>
        <time>2017-06-12T17:21:23Z</time>
      </trkpt>
      <trkpt lat="50.25566" lon="5.13286">
        <ele>310.68607389867</ele>
        <time>2017-06-12T17:21:27Z</time>
      </trkpt>
      <trkpt lat="50.25547" lon="5.13265">
        <ele>311.16820993826</ele>
        <time>2017-06-12T17:21:32Z</time>
      </trkpt>
      <trkpt lat="50.2553" lon="5.1325">
        <ele>312.85677232965</ele>
        <time>2017-06-12T17:21:36Z</time>
      </trkpt>
      <trkpt lat="50.25507" lon="5.13231">
        <ele>315.9671605635</ele>
        <time>2017-06-12T17:21:41Z</time>
      </trkpt>
      <trkpt lat="50.25484" lon="5.13205">
        <ele>315.42517657646</ele>
        <time>2017-06-12T17:21:46Z</time>
      </trkpt>
      <trkpt lat="50.25468" lon="5.1318">
        <ele>314.89796363565</ele>
        <time>2017-06-12T17:21:50Z</time>
      </trkpt>
      <trkpt lat="50.2545" lon="5.13144">
        <ele>314.38730156704</ele>
        <time>2017-06-12T17:21:55Z</time>
      </trkpt>
      <trkpt lat="50.25436" lon="5.13115">
        <ele>314.29453610313</ele>
        <time>2017-06-12T17:21:59Z</time>
      </trkpt>
      <trkpt lat="50.2542" lon="5.13076">
        <ele>314.00021564972</ele>
        <time>2017-06-12T17:22:04Z</time>
      </trkpt>
      <trkpt lat="50.25408" lon="5.13046">
        <ele>313.72773622921</ele>
        <time>2017-06-12T17:22:08Z</time>
      </trkpt>
      <trkpt lat="50.25395" lon="5.13011">
        <ele>312.88075877045</ele>
        <time>2017-06-12T17:22:12Z</time>
      </trkpt>
      <trkpt lat="50.25381" lon="5.12974">
        <ele>311.73916871084</ele>
        <time>2017-06-12T17:22:16Z</time>
      </trkpt>
      <trkpt lat="50.25362" lon="5.1292">
        <ele>309.87572434912</ele>
        <time>2017-06-12T17:22:21Z</time>
      </trkpt>
      <trkpt lat="50.25345" lon="5.12862">
        <ele>308.99456930188</ele>
        <time>2017-06-12T17:22:26Z</time>
      </trkpt>
      <trkpt lat="50.25333" lon="5.12824">
        <ele>309.26515361831</ele>
        <time>2017-06-12T17:22:30Z</time>
      </trkpt>
      <trkpt lat="50.25321" lon="5.12782">
        <ele>309.95386382034</ele>
        <time>2017-06-12T17:22:35Z</time>
      </trkpt>
      <trkpt lat="50.25303" lon="5.12744">
        <ele>310.45736111786</ele>
        <time>2017-06-12T17:22:40Z</time>
      </trkpt>
      <trkpt lat="50.25278" lon="5.12711">
        <ele>311.61167612826</ele>
        <time>2017-06-12T17:22:45Z</time>
      </trkpt>
      <trkpt lat="50.25258" lon="5.12688">
        <ele>313.2226469042</ele>
        <time>2017-06-12T17:22:49Z</time>
      </trkpt>
      <trkpt lat="50.25232" lon="5.12663">
        <ele>314.14994030644</ele>
        <time>2017-06-12T17:22:54Z</time>
      </trkpt>
      <trkpt lat="50.25212" lon="5.12645">
        <ele>313.98946119931</ele>
        <time>2017-06-12T17:22:58Z</time>
      </trkpt>
      <trkpt lat="50.25184" lon="5.12624">
        <ele>313.73112646947</ele>
        <time>2017-06-12T17:23:03Z</time>
      </trkpt>
      <trkpt lat="50.25161" lon="5.12598">
        <ele>313.96915798909</ele>
        <time>2017-06-12T17:23:08Z</time>
      </trkpt>
      <trkpt lat="50.25146" lon="5.12571">
        <ele>315.02362531355</ele>
        <time>2017-06-12T17:23:12Z</time>
      </trkpt>
      <trkpt lat="50.25127" lon="5.12537">
        <ele>316.14517623788</ele>
        <time>2017-06-12T17:23:17Z</time>
      </trkpt>
      <trkpt lat="50.25107" lon="5.12502">
        <ele>315.86887651936</ele>
        <time>2017-06-12T17:23:22Z</time>
      </trkpt>
      <trkpt lat="50.25093" lon="5.12479">
        <ele>315.87214363096</ele>
        <time>2017-06-12T17:23:26Z</time>
      </trkpt>
      <trkpt lat="50.25084" lon="5.12458">
        <ele>315.9023804574</ele>
        <time>2017-06-12T17:23:31Z</time>
      </trkpt>
      <trkpt lat="50.25094" lon="5.12426">
        <ele>314.2336943202</ele>
        <time>2017-06-12T17:23:35Z</time>
      </trkpt>
      <trkpt lat="50.25104" lon="5.12386">
        <ele>315.11979068738</ele>
        <time>2017-06-12T17:23:39Z</time>
      </trkpt>
      <trkpt lat="50.2511" lon="5.12329">
        <ele>314.09110531778</ele>
        <time>2017-06-12T17:23:44Z</time>
      </trkpt>
      <trkpt lat="50.25095" lon="5.12292">
        <ele>313.01035219975</ele>
        <time>2017-06-12T17:23:49Z</time>
      </trkpt>
      <trkpt lat="50.2508" lon="5.12267">
        <ele>313.65037331649</ele>
        <time>2017-06-12T17:23:53Z</time>
      </trkpt>
      <trkpt lat="50.25062" lon="5.12237">
        <ele>315.24990986235</ele>
        <time>2017-06-12T17:23:58Z</time>
      </trkpt>
      <trkpt lat="50.25045" lon="5.12218">
        <ele>317.1684462813</ele>
        <time>2017-06-12T17:24:02Z</time>
      </trkpt>
      <trkpt lat="50.25022" lon="5.12221">
        <ele>320.3189532347</ele>
        <time>2017-06-12T17:24:06Z</time>
      </trkpt>
      <trkpt lat="50.24994" lon="5.12231">
        <ele>321.4922763415</ele>
        <time>2017-06-12T17:24:11Z</time>
      </trkpt>
      <trkpt lat="50.24973" lon="5.12239">
        <ele>323.28837604729</ele>
        <time>2017-06-12T17:24:15Z</time>
      </trkpt>
      <trkpt lat="50.24947" lon="5.12245">
        <ele>324.70826140899</ele>
        <time>2017-06-12T17:24:20Z</time>
      </trkpt>
      <trkpt lat="50.2492" lon="5.12248">
        <ele>326.68723852265</ele>
        <time>2017-06-12T17:24:25Z</time>
      </trkpt>
      <trkpt lat="50.24898" lon="5.12241">
        <ele>327.40932512764</ele>
        <time>2017-06-12T17:24:29Z</time>
      </trkpt>
      <trkpt lat="50.24875" lon="5.12232">
        <ele>327.92364035888</ele>
        <time>2017-06-12T17:24:33Z</time>
      </trkpt>
      <trkpt lat="50.24852" lon="5.12223">
        <ele>328.52323291747</ele>
        <time>2017-06-12T17:24:37Z</time>
      </trkpt>
      <trkpt lat="50.2483" lon="5.12215">
        <ele>328.75192888047</ele>
        <time>2017-06-12T17:24:41Z</time>
      </trkpt>
      <trkpt lat="50.24801" lon="5.12205">
        <ele>328.81152810799</ele>
        <time>2017-06-12T17:24:46Z</time>
      </trkpt>
      <trkpt lat="50.24777" lon="5.12195">
        <ele>328.62886162232</ele>
        <time>2017-06-12T17:24:50Z</time>
      </trkpt>
      <trkpt lat="50.24747" lon="5.12185">
        <ele>328.81739538905</ele>
        <time>2017-06-12T17:24:55Z</time>
      </trkpt>
      <trkpt lat="50.24723" lon="5.12175">
        <ele>329.30359199876</ele>
        <time>2017-06-12T17:24:59Z</time>
      </trkpt>
      <trkpt lat="50.24693" lon="5.12161">
        <ele>330.08590144886</ele>
        <time>2017-06-12T17:25:04Z</time>
      </trkpt>
      <trkpt lat="50.24671" lon="5.12145">
        <ele>331.16834244888</ele>
        <time>2017-06-12T17:25:08Z</time>
      </trkpt>
      <trkpt lat="50.24649" lon="5.12123">
        <ele>331.75971080163</ele>
        <time>2017-06-12T17:25:12Z</time>
      </trkpt>
      <trkpt lat="50.24631" lon="5.12092">
        <ele>330.97264634192</ele>
        <time>2017-06-12T17:25:16Z</time>
      </trkpt>
      <trkpt lat="50.24616" lon="5.12048">
        <ele>329.92861669264</ele>
        <time>2017-06-12T17:25:21Z</time>
      </trkpt>
      <trkpt lat="50.24604" lon="5.12014">
        <ele>329.51618808253</ele>
        <time>2017-06-12T17:25:25Z</time>
      </trkpt>
      <trkpt lat="50.24593" lon="5.1198">
        <ele>329.80629668693</ele>
        <time>2017-06-12T17:25:29Z</time>
      </trkpt>
      <trkpt lat="50.24583" lon="5.11944">
        <ele>330.5995095043</ele>
        <time>2017-06-12T17:25:33Z</time>
      </trkpt>
      <trkpt lat="50.24573" lon="5.11906">
        <ele>332.63307124156</ele>
        <time>2017-06-12T17:25:37Z</time>
      </trkpt>
      <trkpt lat="50.24564" lon="5.11871">
        <ele>334.67597530139</ele>
        <time>2017-06-12T17:25:41Z</time>
      </trkpt>
      <trkpt lat="50.24552" lon="5.11829">
        <ele>333.9792666714</ele>
        <time>2017-06-12T17:25:46Z</time>
      </trkpt>
      <trkpt lat="50.24538" lon="5.11795">
        <ele>333.77088513116</ele>
        <time>2017-06-12T17:25:50Z</time>
      </trkpt>
      <trkpt lat="50.24523" lon="5.11761">
        <ele>333.85517375822</ele>
        <time>2017-06-12T17:25:54Z</time>
      </trkpt>
      <trkpt lat="50.24506" lon="5.11719">
        <ele>334.28074786733</ele>
        <time>2017-06-12T17:25:59Z</time>
      </trkpt>
      <trkpt lat="50.24489" lon="5.11676">
        <ele>334.27781424122</ele>
        <time>2017-06-12T17:26:04Z</time>
      </trkpt>
      <trkpt lat="50.24475" lon="5.11643">
        <ele>334.73987889867</ele>
        <time>2017-06-12T17:26:08Z</time>
      </trkpt>
      <trkpt lat="50.24462" lon="5.11611">
        <ele>334.81875459488</ele>
        <time>2017-06-12T17:26:12Z</time>
      </trkpt>
      <trkpt lat="50.24448" lon="5.11578">
        <ele>334.76426682596</ele>
        <time>2017-06-12T17:26:16Z</time>
      </trkpt>
      <trkpt lat="50.24431" lon="5.11535">
        <ele>334.89609307399</ele>
        <time>2017-06-12T17:26:21Z</time>
      </trkpt>
      <trkpt lat="50.24419" lon="5.11502">
        <ele>335.61137489568</ele>
        <time>2017-06-12T17:26:25Z</time>
      </trkpt>
      <trkpt lat="50.24409" lon="5.11468">
        <ele>336.26773352485</ele>
        <time>2017-06-12T17:26:29Z</time>
      </trkpt>
      <trkpt lat="50.244" lon="5.11432">
        <ele>338.47078428562</ele>
        <time>2017-06-12T17:26:33Z</time>
      </trkpt>
      <trkpt lat="50.24391" lon="5.11396">
        <ele>340.02350836176</ele>
        <time>2017-06-12T17:26:37Z</time>
      </trkpt>
      <trkpt lat="50.24381" lon="5.11351">
        <ele>340.43704993075</ele>
        <time>2017-06-12T17:26:42Z</time>
      </trkpt>
      <trkpt lat="50.24373" lon="5.11315">
        <ele>339.83908124332</ele>
        <time>2017-06-12T17:26:46Z</time>
      </trkpt>
      <trkpt lat="50.24362" lon="5.1127">
        <ele>339.14047324642</ele>
        <time>2017-06-12T17:26:51Z</time>
      </trkpt>
      <trkpt lat="50.24352" lon="5.11235">
        <ele>339.93601057711</ele>
        <time>2017-06-12T17:26:55Z</time>
      </trkpt>
      <trkpt lat="50.24338" lon="5.11193">
        <ele>340.50121116006</ele>
        <time>2017-06-12T17:27:00Z</time>
      </trkpt>
      <trkpt lat="50.24327" lon="5.11159">
        <ele>341.25884131421</ele>
        <time>2017-06-12T17:27:04Z</time>
      </trkpt>
      <trkpt lat="50.24313" lon="5.11117">
        <ele>340.02592472765</ele>
        <time>2017-06-12T17:27:09Z</time>
      </trkpt>
      <trkpt lat="50.24301" lon="5.11083">
        <ele>340.03742123872</ele>
        <time>2017-06-12T17:27:13Z</time>
      </trkpt>
      <trkpt lat="50.24286" lon="5.11042">
        <ele>340.24437055589</ele>
        <time>2017-06-12T17:27:18Z</time>
      </trkpt>
      <trkpt lat="50.2427" lon="5.11001">
        <ele>340.82581483883</ele>
        <time>2017-06-12T17:27:23Z</time>
      </trkpt>
      <trkpt lat="50.24257" lon="5.10969">
        <ele>341.29929937069</ele>
        <time>2017-06-12T17:27:27Z</time>
      </trkpt>
      <trkpt lat="50.24238" lon="5.10927">
        <ele>341.09812086166</ele>
        <time>2017-06-12T17:27:32Z</time>
      </trkpt>
      <trkpt lat="50.24221" lon="5.10893">
        <ele>341.54648007829</ele>
        <time>2017-06-12T17:27:36Z</time>
      </trkpt>
      <trkpt lat="50.24204" lon="5.10856">
        <ele>340.73555146392</ele>
        <time>2017-06-12T17:27:41Z</time>
      </trkpt>
      <trkpt lat="50.24185" lon="5.10819">
        <ele>339.52050913692</ele>
        <time>2017-06-12T17:27:46Z</time>
      </trkpt>
      <trkpt lat="50.24171" lon="5.1079">
        <ele>339.86431910663</ele>
        <time>2017-06-12T17:27:50Z</time>
      </trkpt>
      <trkpt lat="50.24156" lon="5.10762">
        <ele>339.99679751687</ele>
        <time>2017-06-12T17:27:54Z</time>
      </trkpt>
      <trkpt lat="50.24133" lon="5.10731">
        <ele>341.63696708537</ele>
        <time>2017-06-12T17:27:59Z</time>
      </trkpt>
      <trkpt lat="50.24105" lon="5.10707">
        <ele>339.31447187496</ele>
        <time>2017-06-12T17:28:04Z</time>
      </trkpt>
      <trkpt lat="50.24075" lon="5.10687">
        <ele>337.11730879593</ele>
        <time>2017-06-12T17:28:09Z</time>
      </trkpt>
      <trkpt lat="50.24051" lon="5.10671">
        <ele>336.1465364952</ele>
        <time>2017-06-12T17:28:13Z</time>
      </trkpt>
      <trkpt lat="50.24026" lon="5.10655">
        <ele>336.85206549741</ele>
        <time>2017-06-12T17:28:17Z</time>
      </trkpt>
      <trkpt lat="50.23998" lon="5.10628">
        <ele>336.40231062128</ele>
        <time>2017-06-12T17:28:22Z</time>
      </trkpt>
      <trkpt lat="50.2398" lon="5.10601">
        <ele>335.11312164678</ele>
        <time>2017-06-12T17:28:26Z</time>
      </trkpt>
      <trkpt lat="50.23962" lon="5.10563">
        <ele>333.6889503441</ele>
        <time>2017-06-12T17:28:31Z</time>
      </trkpt>
      <trkpt lat="50.23947" lon="5.10527">
        <ele>332.98811066555</ele>
        <time>2017-06-12T17:28:35Z</time>
      </trkpt>
      <trkpt lat="50.23931" lon="5.1049">
        <ele>332.56583088047</ele>
        <time>2017-06-12T17:28:39Z</time>
      </trkpt>
      <trkpt lat="50.23917" lon="5.10457">
        <ele>331.9134475974</ele>
        <time>2017-06-12T17:28:43Z</time>
      </trkpt>
      <trkpt lat="50.23913" lon="5.10432">
        <ele>331.3717451611</ele>
        <time>2017-06-12T17:28:47Z</time>
      </trkpt>
      <trkpt lat="50.23927" lon="5.10424">
        <ele>332.44162417446</ele>
        <time>2017-06-12T17:28:51Z</time>
      </trkpt>
      <trkpt lat="50.23949" lon="5.10411">
        <ele>333.89324715923</ele>
        <time>2017-06-12T17:28:55Z</time>
      </trkpt>
      <trkpt lat="50.23975" lon="5.10394">
        <ele>333.62889466334</ele>
        <time>2017-06-12T17:28:59Z</time>
      </trkpt>
      <trkpt lat="50.24001" lon="5.10378">
        <ele>333.49754959162</ele>
        <time>2017-06-12T17:29:03Z</time>
      </trkpt>
      <trkpt lat="50.24032" lon="5.10354">
        <ele>333.60838527513</ele>
        <time>2017-06-12T17:29:08Z</time>
      </trkpt>
      <trkpt lat="50.24061" lon="5.10324">
        <ele>333.25130213999</ele>
        <time>2017-06-12T17:29:13Z</time>
      </trkpt>
      <trkpt lat="50.24087" lon="5.10293">
        <ele>333.76740679864</ele>
        <time>2017-06-12T17:29:18Z</time>
      </trkpt>
      <trkpt lat="50.24109" lon="5.10268">
        <ele>334.44884458526</ele>
        <time>2017-06-12T17:29:22Z</time>
      </trkpt>
      <trkpt lat="50.24134" lon="5.10237">
        <ele>335.55114854373</ele>
        <time>2017-06-12T17:29:27Z</time>
      </trkpt>
      <trkpt lat="50.24155" lon="5.10212">
        <ele>335.88603703014</ele>
        <time>2017-06-12T17:29:31Z</time>
      </trkpt>
      <trkpt lat="50.24173" lon="5.10188">
        <ele>336.25191033314</ele>
        <time>2017-06-12T17:29:35Z</time>
      </trkpt>
      <trkpt lat="50.24199" lon="5.10157">
        <ele>336.59647752408</ele>
        <time>2017-06-12T17:29:40Z</time>
      </trkpt>
      <trkpt lat="50.24222" lon="5.10136">
        <ele>335.39253363588</ele>
        <time>2017-06-12T17:29:44Z</time>
      </trkpt>
      <trkpt lat="50.24256" lon="5.10115">
        <ele>333.09271898925</ele>
        <time>2017-06-12T17:29:49Z</time>
      </trkpt>
      <trkpt lat="50.2429" lon="5.10096">
        <ele>331.38890502474</ele>
        <time>2017-06-12T17:29:53Z</time>
      </trkpt>
      <trkpt lat="50.24332" lon="5.10072">
        <ele>328.82313063564</ele>
        <time>2017-06-12T17:29:57Z</time>
      </trkpt>
      <trkpt lat="50.24378" lon="5.10045">
        <ele>325.20824003393</ele>
        <time>2017-06-12T17:30:01Z</time>
      </trkpt>
      <trkpt lat="50.24419" lon="5.1002">
        <ele>321.48320012644</ele>
        <time>2017-06-12T17:30:05Z</time>
      </trkpt>
      <trkpt lat="50.24468" lon="5.0999">
        <ele>318.57332642126</ele>
        <time>2017-06-12T17:30:10Z</time>
      </trkpt>
      <trkpt lat="50.24502" lon="5.09969">
        <ele>317.26482276408</ele>
        <time>2017-06-12T17:30:14Z</time>
      </trkpt>
      <trkpt lat="50.2454" lon="5.09946">
        <ele>317.53224040696</ele>
        <time>2017-06-12T17:30:19Z</time>
      </trkpt>
      <trkpt lat="50.24573" lon="5.09926">
        <ele>318.09826751993</ele>
        <time>2017-06-12T17:30:24Z</time>
      </trkpt>
      <trkpt lat="50.24604" lon="5.09907">
        <ele>318.4798899062</ele>
        <time>2017-06-12T17:30:29Z</time>
      </trkpt>
      <trkpt lat="50.24627" lon="5.09889">
        <ele>318.99919507006</ele>
        <time>2017-06-12T17:30:33Z</time>
      </trkpt>
      <trkpt lat="50.2465" lon="5.0987">
        <ele>319.43201814943</ele>
        <time>2017-06-12T17:30:37Z</time>
      </trkpt>
      <trkpt lat="50.24673" lon="5.09852">
        <ele>319.74182381858</ele>
        <time>2017-06-12T17:30:41Z</time>
      </trkpt>
      <trkpt lat="50.24702" lon="5.09829">
        <ele>320.37162980357</ele>
        <time>2017-06-12T17:30:46Z</time>
      </trkpt>
      <trkpt lat="50.2473" lon="5.09805">
        <ele>320.95444773031</ele>
        <time>2017-06-12T17:30:51Z</time>
      </trkpt>
      <trkpt lat="50.24751" lon="5.09783">
        <ele>321.36895249919</ele>
        <time>2017-06-12T17:30:55Z</time>
      </trkpt>
      <trkpt lat="50.24771" lon="5.09758">
        <ele>321.15344473059</ele>
        <time>2017-06-12T17:30:59Z</time>
      </trkpt>
      <trkpt lat="50.2479" lon="5.09732">
        <ele>320.4071938092</ele>
        <time>2017-06-12T17:31:03Z</time>
      </trkpt>
      <trkpt lat="50.24807" lon="5.09706">
        <ele>320.21611479752</ele>
        <time>2017-06-12T17:31:07Z</time>
      </trkpt>
      <trkpt lat="50.2481" lon="5.0967">
        <ele>320.27772424429</ele>
        <time>2017-06-12T17:31:12Z</time>
      </trkpt>
      <trkpt lat="50.24801" lon="5.0964">
        <ele>321.02424028772</ele>
        <time>2017-06-12T17:31:16Z</time>
      </trkpt>
      <trkpt lat="50.2479" lon="5.09609">
        <ele>322.0073918358</ele>
        <time>2017-06-12T17:31:20Z</time>
      </trkpt>
      <trkpt lat="50.24777" lon="5.09567">
        <ele>323.77210483034</ele>
        <time>2017-06-12T17:31:25Z</time>
      </trkpt>
      <trkpt lat="50.24767" lon="5.09533">
        <ele>325.32122869616</ele>
        <time>2017-06-12T17:31:29Z</time>
      </trkpt>
      <trkpt lat="50.24753" lon="5.095">
        <ele>326.31986883834</ele>
        <time>2017-06-12T17:31:33Z</time>
      </trkpt>
      <trkpt lat="50.24733" lon="5.09462">
        <ele>326.9520890523</ele>
        <time>2017-06-12T17:31:38Z</time>
      </trkpt>
      <trkpt lat="50.2472" lon="5.09435">
        <ele>328.76813576859</ele>
        <time>2017-06-12T17:31:42Z</time>
      </trkpt>
      <trkpt lat="50.247" lon="5.094">
        <ele>330.07332549636</ele>
        <time>2017-06-12T17:31:47Z</time>
      </trkpt>
      <trkpt lat="50.24679" lon="5.09361">
        <ele>328.97406468857</ele>
        <time>2017-06-12T17:31:52Z</time>
      </trkpt>
      <trkpt lat="50.24663" lon="5.09329">
        <ele>327.37841996869</ele>
        <time>2017-06-12T17:31:56Z</time>
      </trkpt>
      <trkpt lat="50.24646" lon="5.09291">
        <ele>324.36445174684</ele>
        <time>2017-06-12T17:32:01Z</time>
      </trkpt>
      <trkpt lat="50.24634" lon="5.09264">
        <ele>323.11548649463</ele>
        <time>2017-06-12T17:32:05Z</time>
      </trkpt>
      <trkpt lat="50.24621" lon="5.09236">
        <ele>322.36464848752</ele>
        <time>2017-06-12T17:32:09Z</time>
      </trkpt>
      <trkpt lat="50.24608" lon="5.09208">
        <ele>322.27593213341</ele>
        <time>2017-06-12T17:32:14Z</time>
      </trkpt>
      <trkpt lat="50.24596" lon="5.09184">
        <ele>322.75707008747</ele>
        <time>2017-06-12T17:32:18Z</time>
      </trkpt>
      <trkpt lat="50.24582" lon="5.09155">
        <ele>322.7220679085</ele>
        <time>2017-06-12T17:32:22Z</time>
      </trkpt>
      <trkpt lat="50.24569" lon="5.09123">
        <ele>320.5549169384</ele>
        <time>2017-06-12T17:32:26Z</time>
      </trkpt>
      <trkpt lat="50.24553" lon="5.09091">
        <ele>319.34473994913</ele>
        <time>2017-06-12T17:32:31Z</time>
      </trkpt>
      <trkpt lat="50.24542" lon="5.09069">
        <ele>320.64756166639</ele>
        <time>2017-06-12T17:32:35Z</time>
      </trkpt>
      <trkpt lat="50.24529" lon="5.09044">
        <ele>322.7758348373</ele>
        <time>2017-06-12T17:32:40Z</time>
      </trkpt>
      <trkpt lat="50.24515" lon="5.09029">
        <ele>322.86186096593</ele>
        <time>2017-06-12T17:32:44Z</time>
      </trkpt>
      <trkpt lat="50.24495" lon="5.09032">
        <ele>323.91881236007</ele>
        <time>2017-06-12T17:32:49Z</time>
      </trkpt>
      <trkpt lat="50.24476" lon="5.09043">
        <ele>320.19429300908</ele>
        <time>2017-06-12T17:32:53Z</time>
      </trkpt>
      <trkpt lat="50.24453" lon="5.0906">
        <ele>316.9522583979</ele>
        <time>2017-06-12T17:32:57Z</time>
      </trkpt>
      <trkpt lat="50.24425" lon="5.09076">
        <ele>312.09970469466</ele>
        <time>2017-06-12T17:33:02Z</time>
      </trkpt>
      <trkpt lat="50.24402" lon="5.0909">
        <ele>311.26470670871</ele>
        <time>2017-06-12T17:33:06Z</time>
      </trkpt>
      <trkpt lat="50.2438" lon="5.09105">
        <ele>310.87504334094</ele>
        <time>2017-06-12T17:33:10Z</time>
      </trkpt>
      <trkpt lat="50.24351" lon="5.09127">
        <ele>309.38256466251</ele>
        <time>2017-06-12T17:33:15Z</time>
      </trkpt>
      <trkpt lat="50.24327" lon="5.09142">
        <ele>308.18877407782</ele>
        <time>2017-06-12T17:33:19Z</time>
      </trkpt>
      <trkpt lat="50.24296" lon="5.09165">
        <ele>306.3690528895</ele>
        <time>2017-06-12T17:33:24Z</time>
      </trkpt>
      <trkpt lat="50.24277" lon="5.09179">
        <ele>305.61518873877</ele>
        <time>2017-06-12T17:33:29Z</time>
      </trkpt>
      <trkpt lat="50.24256" lon="5.09174">
        <ele>305.34831181129</ele>
        <time>2017-06-12T17:33:33Z</time>
      </trkpt>
      <trkpt lat="50.24222" lon="5.09187">
        <ele>302.06460286777</ele>
        <time>2017-06-12T17:33:38Z</time>
      </trkpt>
      <trkpt lat="50.24193" lon="5.09201">
        <ele>300.14195556613</ele>
        <time>2017-06-12T17:33:42Z</time>
      </trkpt>
      <trkpt lat="50.24168" lon="5.09216">
        <ele>299.31767405338</ele>
        <time>2017-06-12T17:33:46Z</time>
      </trkpt>
      <trkpt lat="50.24146" lon="5.09227">
        <ele>300.31879724414</ele>
        <time>2017-06-12T17:33:51Z</time>
      </trkpt>
      <trkpt lat="50.24127" lon="5.0921">
        <ele>303.1715811148</ele>
        <time>2017-06-12T17:33:56Z</time>
      </trkpt>
      <trkpt lat="50.24113" lon="5.09189">
        <ele>304.18519183726</ele>
        <time>2017-06-12T17:34:00Z</time>
      </trkpt>
      <trkpt lat="50.24096" lon="5.09175">
        <ele>306.68961143362</ele>
        <time>2017-06-12T17:34:04Z</time>
      </trkpt>
      <trkpt lat="50.24077" lon="5.09153">
        <ele>309.19398984526</ele>
        <time>2017-06-12T17:34:09Z</time>
      </trkpt>
      <trkpt lat="50.2406" lon="5.09138">
        <ele>308.94236366254</ele>
        <time>2017-06-12T17:34:13Z</time>
      </trkpt>
      <trkpt lat="50.24037" lon="5.09124">
        <ele>307.8048634795</ele>
        <time>2017-06-12T17:34:18Z</time>
      </trkpt>
      <trkpt lat="50.24018" lon="5.09115">
        <ele>309.17485737262</ele>
        <time>2017-06-12T17:34:22Z</time>
      </trkpt>
      <trkpt lat="50.23995" lon="5.09105">
        <ele>310.40607831376</ele>
        <time>2017-06-12T17:34:27Z</time>
      </trkpt>
      <trkpt lat="50.23978" lon="5.09097">
        <ele>312.4893046357</ele>
        <time>2017-06-12T17:34:31Z</time>
      </trkpt>
      <trkpt lat="50.23958" lon="5.09089">
        <ele>314.33834265818</ele>
        <time>2017-06-12T17:34:35Z</time>
      </trkpt>
      <trkpt lat="50.23932" lon="5.09082">
        <ele>316.2452070169</ele>
        <time>2017-06-12T17:34:40Z</time>
      </trkpt>
      <trkpt lat="50.23911" lon="5.09078">
        <ele>318.21941939912</ele>
        <time>2017-06-12T17:34:44Z</time>
      </trkpt>
      <trkpt lat="50.23891" lon="5.09074">
        <ele>320.12053569652</ele>
        <time>2017-06-12T17:34:48Z</time>
      </trkpt>
      <trkpt lat="50.23865" lon="5.09068">
        <ele>320.57450252425</ele>
        <time>2017-06-12T17:34:53Z</time>
      </trkpt>
      <trkpt lat="50.23845" lon="5.09059">
        <ele>322.48037306362</ele>
        <time>2017-06-12T17:34:57Z</time>
      </trkpt>
      <trkpt lat="50.2382" lon="5.09043">
        <ele>324.37200204033</ele>
        <time>2017-06-12T17:35:02Z</time>
      </trkpt>
      <trkpt lat="50.23801" lon="5.0903">
        <ele>325.8342567822</ele>
        <time>2017-06-12T17:35:06Z</time>
      </trkpt>
      <trkpt lat="50.23777" lon="5.09016">
        <ele>327.41901533637</ele>
        <time>2017-06-12T17:35:11Z</time>
      </trkpt>
      <trkpt lat="50.23761" lon="5.09004">
        <ele>327.75022871863</ele>
        <time>2017-06-12T17:35:15Z</time>
      </trkpt>
      <trkpt lat="50.2376" lon="5.08977">
        <ele>327.03433895984</ele>
        <time>2017-06-12T17:35:19Z</time>
      </trkpt>
      <trkpt lat="50.23761" lon="5.0893">
        <ele>324.06901510675</ele>
        <time>2017-06-12T17:35:24Z</time>
      </trkpt>
      <trkpt lat="50.23757" lon="5.08885">
        <ele>322.51149363368</ele>
        <time>2017-06-12T17:35:28Z</time>
      </trkpt>
      <trkpt lat="50.23746" lon="5.08832">
        <ele>321.70475195091</ele>
        <time>2017-06-12T17:35:33Z</time>
      </trkpt>
      <trkpt lat="50.23729" lon="5.08785">
        <ele>322.27581911813</ele>
        <time>2017-06-12T17:35:38Z</time>
      </trkpt>
      <trkpt lat="50.23713" lon="5.0875">
        <ele>322.54575197747</ele>
        <time>2017-06-12T17:35:42Z</time>
      </trkpt>
      <trkpt lat="50.23692" lon="5.08703">
        <ele>324.57478053056</ele>
        <time>2017-06-12T17:35:47Z</time>
      </trkpt>
      <trkpt lat="50.23675" lon="5.08662">
        <ele>322.80817195172</ele>
        <time>2017-06-12T17:35:51Z</time>
      </trkpt>
      <trkpt lat="50.23656" lon="5.0862">
        <ele>317.47385455496</ele>
        <time>2017-06-12T17:35:55Z</time>
      </trkpt>
      <trkpt lat="50.23639" lon="5.08582">
        <ele>314.01738857285</ele>
        <time>2017-06-12T17:35:59Z</time>
      </trkpt>
      <trkpt lat="50.23617" lon="5.0853">
        <ele>311.36297784986</ele>
        <time>2017-06-12T17:36:04Z</time>
      </trkpt>
      <trkpt lat="50.23602" lon="5.08489">
        <ele>311.22878702896</ele>
        <time>2017-06-12T17:36:08Z</time>
      </trkpt>
      <trkpt lat="50.23587" lon="5.08441">
        <ele>311.04950460686</ele>
        <time>2017-06-12T17:36:12Z</time>
      </trkpt>
      <trkpt lat="50.23573" lon="5.08376">
        <ele>309.53544159082</ele>
        <time>2017-06-12T17:36:17Z</time>
      </trkpt>
      <trkpt lat="50.23563" lon="5.08325">
        <ele>307.66348818297</ele>
        <time>2017-06-12T17:36:21Z</time>
      </trkpt>
      <trkpt lat="50.23551" lon="5.08264">
        <ele>305.74517385669</ele>
        <time>2017-06-12T17:36:26Z</time>
      </trkpt>
      <trkpt lat="50.23543" lon="5.08215">
        <ele>304.29938329231</ele>
        <time>2017-06-12T17:36:30Z</time>
      </trkpt>
      <trkpt lat="50.23535" lon="5.08151">
        <ele>302.04708182301</ele>
        <time>2017-06-12T17:36:35Z</time>
      </trkpt>
      <trkpt lat="50.23528" lon="5.08098">
        <ele>298.49169420998</ele>
        <time>2017-06-12T17:36:39Z</time>
      </trkpt>
      <trkpt lat="50.23528" lon="5.08042">
        <ele>294.92887573779</ele>
        <time>2017-06-12T17:36:43Z</time>
      </trkpt>
      <trkpt lat="50.23535" lon="5.07972">
        <ele>291.87907568917</ele>
        <time>2017-06-12T17:36:48Z</time>
      </trkpt>
      <trkpt lat="50.23548" lon="5.07907">
        <ele>290.07266631605</ele>
        <time>2017-06-12T17:36:53Z</time>
      </trkpt>
      <trkpt lat="50.23561" lon="5.07854">
        <ele>289.1197380717</ele>
        <time>2017-06-12T17:36:58Z</time>
      </trkpt>
      <trkpt lat="50.2357" lon="5.07812">
        <ele>289.35903802532</ele>
        <time>2017-06-12T17:37:02Z</time>
      </trkpt>
      <trkpt lat="50.23579" lon="5.07774">
        <ele>289.71535263221</ele>
        <time>2017-06-12T17:37:06Z</time>
      </trkpt>
      <trkpt lat="50.23588" lon="5.07726">
        <ele>290.12190489764</ele>
        <time>2017-06-12T17:37:11Z</time>
      </trkpt>
      <trkpt lat="50.23593" lon="5.07689">
        <ele>291.24996580652</ele>
        <time>2017-06-12T17:37:15Z</time>
      </trkpt>
      <trkpt lat="50.23598" lon="5.07639">
        <ele>291.63295225126</ele>
        <time>2017-06-12T17:37:20Z</time>
      </trkpt>
      <trkpt lat="50.23601" lon="5.07603">
        <ele>292.38843698572</ele>
        <time>2017-06-12T17:37:24Z</time>
      </trkpt>
      <trkpt lat="50.23605" lon="5.07563">
        <ele>294.1301714643</ele>
        <time>2017-06-12T17:37:29Z</time>
      </trkpt>
      <trkpt lat="50.23611" lon="5.07519">
        <ele>294.71489895821</ele>
        <time>2017-06-12T17:37:34Z</time>
      </trkpt>
      <trkpt lat="50.23615" lon="5.07483">
        <ele>295.58364071103</ele>
        <time>2017-06-12T17:37:38Z</time>
      </trkpt>
      <trkpt lat="50.2362" lon="5.07439">
        <ele>296.39504007769</ele>
        <time>2017-06-12T17:37:43Z</time>
      </trkpt>
      <trkpt lat="50.23625" lon="5.07396">
        <ele>296.97447303039</ele>
        <time>2017-06-12T17:37:48Z</time>
      </trkpt>
      <trkpt lat="50.23628" lon="5.07362">
        <ele>297.93651611003</ele>
        <time>2017-06-12T17:37:52Z</time>
      </trkpt>
      <trkpt lat="50.23633" lon="5.07319">
        <ele>298.67655150333</ele>
        <time>2017-06-12T17:37:57Z</time>
      </trkpt>
      <trkpt lat="50.23638" lon="5.07283">
        <ele>299.13002922513</ele>
        <time>2017-06-12T17:38:01Z</time>
      </trkpt>
      <trkpt lat="50.23642" lon="5.0725">
        <ele>299.93313964583</ele>
        <time>2017-06-12T17:38:05Z</time>
      </trkpt>
      <trkpt lat="50.23646" lon="5.07219">
        <ele>301.30679548359</ele>
        <time>2017-06-12T17:38:09Z</time>
      </trkpt>
      <trkpt lat="50.2365" lon="5.07175">
        <ele>302.72060669425</ele>
        <time>2017-06-12T17:38:14Z</time>
      </trkpt>
      <trkpt lat="50.23654" lon="5.07142">
        <ele>304.17379184199</ele>
        <time>2017-06-12T17:38:18Z</time>
      </trkpt>
      <trkpt lat="50.2366" lon="5.071">
        <ele>303.57925707058</ele>
        <time>2017-06-12T17:38:23Z</time>
      </trkpt>
      <trkpt lat="50.23663" lon="5.07066">
        <ele>303.42120385172</ele>
        <time>2017-06-12T17:38:27Z</time>
      </trkpt>
      <trkpt lat="50.23667" lon="5.07028">
        <ele>302.80423608149</ele>
        <time>2017-06-12T17:38:32Z</time>
      </trkpt>
      <trkpt lat="50.23672" lon="5.06986">
        <ele>303.75577623014</ele>
        <time>2017-06-12T17:38:37Z</time>
      </trkpt>
      <trkpt lat="50.23675" lon="5.06952">
        <ele>304.54367838583</ele>
        <time>2017-06-12T17:38:42Z</time>
      </trkpt>
      <trkpt lat="50.23681" lon="5.06927">
        <ele>304.59786017546</ele>
        <time>2017-06-12T17:38:47Z</time>
      </trkpt>
      <trkpt lat="50.23699" lon="5.069">
        <ele>304.73557870187</ele>
        <time>2017-06-12T17:38:52Z</time>
      </trkpt>
      <trkpt lat="50.23717" lon="5.06874">
        <ele>305.80106839154</ele>
        <time>2017-06-12T17:38:56Z</time>
      </trkpt>
      <trkpt lat="50.23738" lon="5.06846">
        <ele>307.93226258797</ele>
        <time>2017-06-12T17:39:00Z</time>
      </trkpt>
      <trkpt lat="50.23774" lon="5.06822">
        <ele>307.91491092814</ele>
        <time>2017-06-12T17:39:05Z</time>
      </trkpt>
      <trkpt lat="50.23807" lon="5.06833">
        <ele>303.60274316609</ele>
        <time>2017-06-12T17:39:09Z</time>
      </trkpt>
      <trkpt lat="50.23846" lon="5.06859">
        <ele>298.58554286806</ele>
        <time>2017-06-12T17:39:14Z</time>
      </trkpt>
      <trkpt lat="50.23886" lon="5.06891">
        <ele>295.95633609904</ele>
        <time>2017-06-12T17:39:19Z</time>
      </trkpt>
      <trkpt lat="50.23915" lon="5.06926">
        <ele>294.82664058903</ele>
        <time>2017-06-12T17:39:23Z</time>
      </trkpt>
      <trkpt lat="50.23936" lon="5.06977">
        <ele>293.46017225947</ele>
        <time>2017-06-12T17:39:27Z</time>
      </trkpt>
      <trkpt lat="50.23965" lon="5.07032">
        <ele>290.04412646227</ele>
        <time>2017-06-12T17:39:32Z</time>
      </trkpt>
      <trkpt lat="50.23996" lon="5.0705">
        <ele>288.64866040846</ele>
        <time>2017-06-12T17:39:36Z</time>
      </trkpt>
      <trkpt lat="50.24039" lon="5.07048">
        <ele>285.97287257164</ele>
        <time>2017-06-12T17:39:41Z</time>
      </trkpt>
      <trkpt lat="50.24069" lon="5.07017">
        <ele>282.59096725476</ele>
        <time>2017-06-12T17:39:45Z</time>
      </trkpt>
      <trkpt lat="50.24096" lon="5.06957">
        <ele>277.6073035171</ele>
        <time>2017-06-12T17:39:50Z</time>
      </trkpt>
      <trkpt lat="50.24093" lon="5.06889">
        <ele>275.05046647427</ele>
        <time>2017-06-12T17:39:55Z</time>
      </trkpt>
      <trkpt lat="50.24079" lon="5.06832">
        <ele>274.99290251182</ele>
        <time>2017-06-12T17:39:59Z</time>
      </trkpt>
      <trkpt lat="50.24063" lon="5.06782">
        <ele>273.81890767706</ele>
        <time>2017-06-12T17:40:03Z</time>
      </trkpt>
      <trkpt lat="50.24059" lon="5.0673">
        <ele>271.64840354434</ele>
        <time>2017-06-12T17:40:07Z</time>
      </trkpt>
      <trkpt lat="50.24083" lon="5.06697">
        <ele>269.00116565276</ele>
        <time>2017-06-12T17:40:11Z</time>
      </trkpt>
      <trkpt lat="50.2411" lon="5.06697">
        <ele>268.78986361933</ele>
        <time>2017-06-12T17:40:15Z</time>
      </trkpt>
      <trkpt lat="50.24145" lon="5.06702">
        <ele>268.5257065411</ele>
        <time>2017-06-12T17:40:20Z</time>
      </trkpt>
      <trkpt lat="50.24168" lon="5.06707">
        <ele>268.17235352999</ele>
        <time>2017-06-12T17:40:24Z</time>
      </trkpt>
      <trkpt lat="50.24188" lon="5.0671">
        <ele>267.99546614337</ele>
        <time>2017-06-12T17:40:28Z</time>
      </trkpt>
      <trkpt lat="50.2418" lon="5.06693">
        <ele>266.7684047064</ele>
        <time>2017-06-12T17:40:33Z</time>
      </trkpt>
      <trkpt lat="50.2416" lon="5.06676">
        <ele>266.19529662981</ele>
        <time>2017-06-12T17:40:37Z</time>
      </trkpt>
      <trkpt lat="50.24137" lon="5.06658">
        <ele>264.80623317879</ele>
        <time>2017-06-12T17:40:41Z</time>
      </trkpt>
      <trkpt lat="50.24119" lon="5.06633">
        <ele>263.85816977437</ele>
        <time>2017-06-12T17:40:45Z</time>
      </trkpt>
      <trkpt lat="50.24102" lon="5.06605">
        <ele>263.2761449317</ele>
        <time>2017-06-12T17:40:49Z</time>
      </trkpt>
      <trkpt lat="50.24083" lon="5.06582">
        <ele>262.74204057947</ele>
        <time>2017-06-12T17:40:53Z</time>
      </trkpt>
      <trkpt lat="50.24061" lon="5.06565">
        <ele>261.84294973291</ele>
        <time>2017-06-12T17:40:57Z</time>
      </trkpt>
      <trkpt lat="50.24039" lon="5.06557">
        <ele>262.57673733353</ele>
        <time>2017-06-12T17:41:01Z</time>
      </trkpt>
      <trkpt lat="50.24016" lon="5.06557">
        <ele>264.95747070196</ele>
        <time>2017-06-12T17:41:05Z</time>
      </trkpt>
      <trkpt lat="50.23986" lon="5.06555">
        <ele>268.574804745</ele>
        <time>2017-06-12T17:41:10Z</time>
      </trkpt>
      <trkpt lat="50.23964" lon="5.06543">
        <ele>270.35459670079</ele>
        <time>2017-06-12T17:41:14Z</time>
      </trkpt>
      <trkpt lat="50.23937" lon="5.06527">
        <ele>272.43475125777</ele>
        <time>2017-06-12T17:41:18Z</time>
      </trkpt>
      <trkpt lat="50.23914" lon="5.06509">
        <ele>274.14075527636</ele>
        <time>2017-06-12T17:41:22Z</time>
      </trkpt>
      <trkpt lat="50.23899" lon="5.06489">
        <ele>273.6894865592</ele>
        <time>2017-06-12T17:41:26Z</time>
      </trkpt>
      <trkpt lat="50.23889" lon="5.06454">
        <ele>272.33113678735</ele>
        <time>2017-06-12T17:41:30Z</time>
      </trkpt>
      <trkpt lat="50.23881" lon="5.06391">
        <ele>271.12639723654</ele>
        <time>2017-06-12T17:41:35Z</time>
      </trkpt>
      <trkpt lat="50.23867" lon="5.06351">
        <ele>268.40136353426</ele>
        <time>2017-06-12T17:41:39Z</time>
      </trkpt>
      <trkpt lat="50.2386" lon="5.06321">
        <ele>263.53821034947</ele>
        <time>2017-06-12T17:41:43Z</time>
      </trkpt>
      <trkpt lat="50.23875" lon="5.06271">
        <ele>259.85293834311</ele>
        <time>2017-06-12T17:41:48Z</time>
      </trkpt>
      <trkpt lat="50.23893" lon="5.06221">
        <ele>257.86686498908</ele>
        <time>2017-06-12T17:41:52Z</time>
      </trkpt>
      <trkpt lat="50.23899" lon="5.06176">
        <ele>256.94405926043</ele>
        <time>2017-06-12T17:41:56Z</time>
      </trkpt>
      <trkpt lat="50.239" lon="5.06126">
        <ele>255.98397845717</ele>
        <time>2017-06-12T17:42:00Z</time>
      </trkpt>
      <trkpt lat="50.23897" lon="5.06061">
        <ele>253.77731095809</ele>
        <time>2017-06-12T17:42:05Z</time>
      </trkpt>
      <trkpt lat="50.23892" lon="5.06019">
        <ele>252.56390273329</ele>
        <time>2017-06-12T17:42:09Z</time>
      </trkpt>
      <trkpt lat="50.23903" lon="5.05979">
        <ele>250.05010241487</ele>
        <time>2017-06-12T17:42:14Z</time>
      </trkpt>
      <trkpt lat="50.23924" lon="5.05957">
        <ele>247.2285944526</ele>
        <time>2017-06-12T17:42:18Z</time>
      </trkpt>
      <trkpt lat="50.23948" lon="5.05927">
        <ele>245.60223517483</ele>
        <time>2017-06-12T17:42:23Z</time>
      </trkpt>
      <trkpt lat="50.23964" lon="5.05899">
        <ele>244.7728715484</ele>
        <time>2017-06-12T17:42:27Z</time>
      </trkpt>
      <trkpt lat="50.2398" lon="5.05867">
        <ele>244.52253122183</ele>
        <time>2017-06-12T17:42:31Z</time>
      </trkpt>
      <trkpt lat="50.23996" lon="5.05835">
        <ele>244.86954950181</ele>
        <time>2017-06-12T17:42:35Z</time>
      </trkpt>
      <trkpt lat="50.24008" lon="5.05802">
        <ele>245.98126632895</ele>
        <time>2017-06-12T17:42:39Z</time>
      </trkpt>
      <trkpt lat="50.24017" lon="5.05768">
        <ele>246.77155556007</ele>
        <time>2017-06-12T17:42:43Z</time>
      </trkpt>
      <trkpt lat="50.24023" lon="5.05731">
        <ele>245.64113317056</ele>
        <time>2017-06-12T17:42:47Z</time>
      </trkpt>
      <trkpt lat="50.24024" lon="5.05684">
        <ele>242.65036729515</ele>
        <time>2017-06-12T17:42:52Z</time>
      </trkpt>
      <trkpt lat="50.24026" lon="5.05647">
        <ele>240.47227496302</ele>
        <time>2017-06-12T17:42:56Z</time>
      </trkpt>
      <trkpt lat="50.24025" lon="5.05615">
        <ele>239.31195207435</ele>
        <time>2017-06-12T17:43:00Z</time>
      </trkpt>
      <trkpt lat="50.24019" lon="5.05587">
        <ele>237.67404979529</ele>
        <time>2017-06-12T17:43:04Z</time>
      </trkpt>
      <trkpt lat="50.2404" lon="5.05555">
        <ele>235.2195582249</ele>
        <time>2017-06-12T17:43:09Z</time>
      </trkpt>
      <trkpt lat="50.24054" lon="5.05515">
        <ele>233.10369421677</ele>
        <time>2017-06-12T17:43:13Z</time>
      </trkpt>
      <trkpt lat="50.24059" lon="5.05463">
        <ele>231.09178052006</ele>
        <time>2017-06-12T17:43:17Z</time>
      </trkpt>
      <trkpt lat="50.24053" lon="5.054">
        <ele>228.21671622558</ele>
        <time>2017-06-12T17:43:22Z</time>
      </trkpt>
      <trkpt lat="50.24045" lon="5.05354">
        <ele>226.50927026271</ele>
        <time>2017-06-12T17:43:26Z</time>
      </trkpt>
      <trkpt lat="50.24034" lon="5.05303">
        <ele>226.48092590739</ele>
        <time>2017-06-12T17:43:31Z</time>
      </trkpt>
      <trkpt lat="50.24028" lon="5.05264">
        <ele>226.15283722484</ele>
        <time>2017-06-12T17:43:35Z</time>
      </trkpt>
      <trkpt lat="50.2402" lon="5.05215">
        <ele>225.62755086419</ele>
        <time>2017-06-12T17:43:40Z</time>
      </trkpt>
      <trkpt lat="50.24013" lon="5.05169">
        <ele>225.44110389578</ele>
        <time>2017-06-12T17:43:45Z</time>
      </trkpt>
      <trkpt lat="50.24008" lon="5.05129">
        <ele>226.79249655713</ele>
        <time>2017-06-12T17:43:50Z</time>
      </trkpt>
      <trkpt lat="50.24007" lon="5.05102">
        <ele>228.76192753358</ele>
        <time>2017-06-12T17:43:54Z</time>
      </trkpt>
      <trkpt lat="50.24006" lon="5.05068">
        <ele>231.30003192524</ele>
        <time>2017-06-12T17:43:59Z</time>
      </trkpt>
      <trkpt lat="50.24005" lon="5.05035">
        <ele>233.52254326553</ele>
        <time>2017-06-12T17:44:04Z</time>
      </trkpt>
      <trkpt lat="50.24008" lon="5.05004">
        <ele>236.46495649918</ele>
        <time>2017-06-12T17:44:09Z</time>
      </trkpt>
      <trkpt lat="50.24008" lon="5.05004">
        <ele>236.46101779149</ele>
        <time>2017-06-12T17:44:13Z</time>
      </trkpt>
      <trkpt lat="50.24011" lon="5.04961">
        <ele>238.86612030834</ele>
        <time>2017-06-12T17:44:17Z</time>
      </trkpt>
      <trkpt lat="50.24007" lon="5.0493">
        <ele>245.77326980602</ele>
        <time>2017-06-12T17:44:22Z</time>
      </trkpt>
      <trkpt lat="50.24009" lon="5.04899">
        <ele>246.6992652224</ele>
        <time>2017-06-12T17:44:26Z</time>
      </trkpt>
      <trkpt lat="50.24015" lon="5.04876">
        <ele>246.14756544961</ele>
        <time>2017-06-12T17:44:30Z</time>
      </trkpt>
      <trkpt lat="50.24024" lon="5.04847">
        <ele>246.5881873984</ele>
        <time>2017-06-12T17:44:35Z</time>
      </trkpt>
      <trkpt lat="50.24031" lon="5.04826">
        <ele>247.60526625696</ele>
        <time>2017-06-12T17:44:39Z</time>
      </trkpt>
      <trkpt lat="50.2404" lon="5.04798">
        <ele>249.73640793198</ele>
        <time>2017-06-12T17:44:44Z</time>
      </trkpt>
      <trkpt lat="50.24047" lon="5.0477">
        <ele>254.13851876504</ele>
        <time>2017-06-12T17:44:49Z</time>
      </trkpt>
      <trkpt lat="50.24055" lon="5.04745">
        <ele>256.67576630911</ele>
        <time>2017-06-12T17:44:53Z</time>
      </trkpt>
      <trkpt lat="50.24062" lon="5.04724">
        <ele>257.27427078271</ele>
        <time>2017-06-12T17:44:57Z</time>
      </trkpt>
      <trkpt lat="50.24071" lon="5.04702">
        <ele>257.47905272039</ele>
        <time>2017-06-12T17:45:01Z</time>
      </trkpt>
      <trkpt lat="50.24081" lon="5.04672">
        <ele>258.30119101315</ele>
        <time>2017-06-12T17:45:06Z</time>
      </trkpt>
      <trkpt lat="50.2409" lon="5.04646">
        <ele>258.44525616631</ele>
        <time>2017-06-12T17:45:11Z</time>
      </trkpt>
      <trkpt lat="50.24097" lon="5.04624">
        <ele>258.78758878709</ele>
        <time>2017-06-12T17:45:15Z</time>
      </trkpt>
      <trkpt lat="50.24102" lon="5.04604">
        <ele>259.38776850131</ele>
        <time>2017-06-12T17:45:19Z</time>
      </trkpt>
      <trkpt lat="50.24108" lon="5.04579">
        <ele>259.86703295315</ele>
        <time>2017-06-12T17:45:24Z</time>
      </trkpt>
      <trkpt lat="50.24114" lon="5.04559">
        <ele>262.01969162797</ele>
        <time>2017-06-12T17:45:28Z</time>
      </trkpt>
      <trkpt lat="50.24122" lon="5.04534">
        <ele>266.36357077741</ele>
        <time>2017-06-12T17:45:33Z</time>
      </trkpt>
      <trkpt lat="50.2413" lon="5.04508">
        <ele>268.62931725386</ele>
        <time>2017-06-12T17:45:37Z</time>
      </trkpt>
      <trkpt lat="50.24141" lon="5.04477">
        <ele>266.86892306951</ele>
        <time>2017-06-12T17:45:41Z</time>
      </trkpt>
      <trkpt lat="50.24151" lon="5.04444">
        <ele>265.55720975392</ele>
        <time>2017-06-12T17:45:45Z</time>
      </trkpt>
      <trkpt lat="50.24162" lon="5.04408">
        <ele>264.53675028042</ele>
        <time>2017-06-12T17:45:49Z</time>
      </trkpt>
      <trkpt lat="50.24175" lon="5.0437">
        <ele>263.41517021603</ele>
        <time>2017-06-12T17:45:53Z</time>
      </trkpt>
      <trkpt lat="50.24189" lon="5.04326">
        <ele>262.38951244345</ele>
        <time>2017-06-12T17:45:57Z</time>
      </trkpt>
      <trkpt lat="50.24205" lon="5.04281">
        <ele>260.60270067739</ele>
        <time>2017-06-12T17:46:01Z</time>
      </trkpt>
      <trkpt lat="50.24218" lon="5.04241">
        <ele>259.63370077033</ele>
        <time>2017-06-12T17:46:05Z</time>
      </trkpt>
      <trkpt lat="50.24228" lon="5.04206">
        <ele>260.26919382655</ele>
        <time>2017-06-12T17:46:09Z</time>
      </trkpt>
      <trkpt lat="50.24237" lon="5.04174">
        <ele>261.36176386108</ele>
        <time>2017-06-12T17:46:13Z</time>
      </trkpt>
      <trkpt lat="50.24246" lon="5.04145">
        <ele>262.68036520152</ele>
        <time>2017-06-12T17:46:17Z</time>
      </trkpt>
      <trkpt lat="50.24255" lon="5.04113">
        <ele>263.47619799721</ele>
        <time>2017-06-12T17:46:21Z</time>
      </trkpt>
      <trkpt lat="50.24265" lon="5.04084">
        <ele>264.20829136221</ele>
        <time>2017-06-12T17:46:25Z</time>
      </trkpt>
      <trkpt lat="50.24274" lon="5.04058">
        <ele>265.12493873219</ele>
        <time>2017-06-12T17:46:29Z</time>
      </trkpt>
      <trkpt lat="50.24281" lon="5.04037">
        <ele>266.18273837668</ele>
        <time>2017-06-12T17:46:33Z</time>
      </trkpt>
      <trkpt lat="50.24289" lon="5.04011">
        <ele>266.93689361147</ele>
        <time>2017-06-12T17:46:37Z</time>
      </trkpt>
      <trkpt lat="50.24294" lon="5.03973">
        <ele>268.39668998918</ele>
        <time>2017-06-12T17:46:42Z</time>
      </trkpt>
      <trkpt lat="50.24294" lon="5.03943">
        <ele>268.7412192614</ele>
        <time>2017-06-12T17:46:46Z</time>
      </trkpt>
      <trkpt lat="50.24296" lon="5.03913">
        <ele>269.72582985522</ele>
        <time>2017-06-12T17:46:50Z</time>
      </trkpt>
      <trkpt lat="50.243" lon="5.03874">
        <ele>271.06898496631</ele>
        <time>2017-06-12T17:46:55Z</time>
      </trkpt>
      <trkpt lat="50.24311" lon="5.03839">
        <ele>271.56604413314</ele>
        <time>2017-06-12T17:47:00Z</time>
      </trkpt>
      <trkpt lat="50.24325" lon="5.03806">
        <ele>270.56005676688</ele>
        <time>2017-06-12T17:47:04Z</time>
      </trkpt>
      <trkpt lat="50.24341" lon="5.03772">
        <ele>268.60038410052</ele>
        <time>2017-06-12T17:47:08Z</time>
      </trkpt>
      <trkpt lat="50.24361" lon="5.03733">
        <ele>265.85281172495</ele>
        <time>2017-06-12T17:47:12Z</time>
      </trkpt>
      <trkpt lat="50.24381" lon="5.03694">
        <ele>264.77664875315</ele>
        <time>2017-06-12T17:47:16Z</time>
      </trkpt>
      <trkpt lat="50.24401" lon="5.03656">
        <ele>264.22084161863</ele>
        <time>2017-06-12T17:47:20Z</time>
      </trkpt>
      <trkpt lat="50.24418" lon="5.0362">
        <ele>263.59846080068</ele>
        <time>2017-06-12T17:47:24Z</time>
      </trkpt>
      <trkpt lat="50.24432" lon="5.03584">
        <ele>262.64326122367</ele>
        <time>2017-06-12T17:47:28Z</time>
      </trkpt>
      <trkpt lat="50.24442" lon="5.03546">
        <ele>262.45035483082</ele>
        <time>2017-06-12T17:47:32Z</time>
      </trkpt>
      <trkpt lat="50.24451" lon="5.03504">
        <ele>261.51299698469</ele>
        <time>2017-06-12T17:47:36Z</time>
      </trkpt>
      <trkpt lat="50.2446" lon="5.03461">
        <ele>259.70425679151</ele>
        <time>2017-06-12T17:47:40Z</time>
      </trkpt>
      <trkpt lat="50.2447" lon="5.0342">
        <ele>258.02335544035</ele>
        <time>2017-06-12T17:47:44Z</time>
      </trkpt>
      <trkpt lat="50.2448" lon="5.03386">
        <ele>257.00189907159</ele>
        <time>2017-06-12T17:47:48Z</time>
      </trkpt>
      <trkpt lat="50.2449" lon="5.03346">
        <ele>257.18849439051</ele>
        <time>2017-06-12T17:47:53Z</time>
      </trkpt>
      <trkpt lat="50.24495" lon="5.03317">
        <ele>258.6584671763</ele>
        <time>2017-06-12T17:47:57Z</time>
      </trkpt>
      <trkpt lat="50.24502" lon="5.03289">
        <ele>259.95734374245</ele>
        <time>2017-06-12T17:48:01Z</time>
      </trkpt>
      <trkpt lat="50.24511" lon="5.03255">
        <ele>261.43241233306</ele>
        <time>2017-06-12T17:48:06Z</time>
      </trkpt>
      <trkpt lat="50.24517" lon="5.03228">
        <ele>262.77032790736</ele>
        <time>2017-06-12T17:48:10Z</time>
      </trkpt>
      <trkpt lat="50.24526" lon="5.03194">
        <ele>263.44669477222</ele>
        <time>2017-06-12T17:48:15Z</time>
      </trkpt>
      <trkpt lat="50.24532" lon="5.03167">
        <ele>264.15733791885</ele>
        <time>2017-06-12T17:48:19Z</time>
      </trkpt>
      <trkpt lat="50.24539" lon="5.03141">
        <ele>264.80661518669</ele>
        <time>2017-06-12T17:48:23Z</time>
      </trkpt>
      <trkpt lat="50.24544" lon="5.03116">
        <ele>265.53371401209</ele>
        <time>2017-06-12T17:48:27Z</time>
      </trkpt>
      <trkpt lat="50.24551" lon="5.03089">
        <ele>266.77819548362</ele>
        <time>2017-06-12T17:48:31Z</time>
      </trkpt>
      <trkpt lat="50.24557" lon="5.03064">
        <ele>268.35529937367</ele>
        <time>2017-06-12T17:48:35Z</time>
      </trkpt>
      <trkpt lat="50.24564" lon="5.03031">
        <ele>270.65534849677</ele>
        <time>2017-06-12T17:48:40Z</time>
      </trkpt>
      <trkpt lat="50.2457" lon="5.03005">
        <ele>272.29809362044</ele>
        <time>2017-06-12T17:48:44Z</time>
      </trkpt>
      <trkpt lat="50.24577" lon="5.02977">
        <ele>273.76207832484</ele>
        <time>2017-06-12T17:48:48Z</time>
      </trkpt>
      <trkpt lat="50.24584" lon="5.02945">
        <ele>275.36655807049</ele>
        <time>2017-06-12T17:48:53Z</time>
      </trkpt>
      <trkpt lat="50.24592" lon="5.02913">
        <ele>277.12408964474</ele>
        <time>2017-06-12T17:48:58Z</time>
      </trkpt>
      <trkpt lat="50.24599" lon="5.02885">
        <ele>278.3247629114</ele>
        <time>2017-06-12T17:49:02Z</time>
      </trkpt>
      <trkpt lat="50.24605" lon="5.02859">
        <ele>279.52103107964</ele>
        <time>2017-06-12T17:49:06Z</time>
      </trkpt>
      <trkpt lat="50.24612" lon="5.02832">
        <ele>280.80240706062</ele>
        <time>2017-06-12T17:49:10Z</time>
      </trkpt>
      <trkpt lat="50.24621" lon="5.02806">
        <ele>281.84956897396</ele>
        <time>2017-06-12T17:49:15Z</time>
      </trkpt>
      <trkpt lat="50.24631" lon="5.02801">
        <ele>282.11309146234</ele>
        <time>2017-06-12T17:49:19Z</time>
      </trkpt>
      <trkpt lat="50.24637" lon="5.02822">
        <ele>283.17422835493</ele>
        <time>2017-06-12T17:49:24Z</time>
      </trkpt>
      <trkpt lat="50.24642" lon="5.02848">
        <ele>285.01930116414</ele>
        <time>2017-06-12T17:49:28Z</time>
      </trkpt>
      <trkpt lat="50.24651" lon="5.02882">
        <ele>286.18873724011</ele>
        <time>2017-06-12T17:49:33Z</time>
      </trkpt>
      <trkpt lat="50.2466" lon="5.02906">
        <ele>287.25080223153</ele>
        <time>2017-06-12T17:49:37Z</time>
      </trkpt>
      <trkpt lat="50.24675" lon="5.02931">
        <ele>288.96158585152</ele>
        <time>2017-06-12T17:49:42Z</time>
      </trkpt>
      <trkpt lat="50.24689" lon="5.02947">
        <ele>290.64395780458</ele>
        <time>2017-06-12T17:49:46Z</time>
      </trkpt>
      <trkpt lat="50.24709" lon="5.02962">
        <ele>291.78988436671</ele>
        <time>2017-06-12T17:49:51Z</time>
      </trkpt>
      <trkpt lat="50.24731" lon="5.02971">
        <ele>292.79938933355</ele>
        <time>2017-06-12T17:49:56Z</time>
      </trkpt>
      <trkpt lat="50.24753" lon="5.02972">
        <ele>296.24606569513</ele>
        <time>2017-06-12T17:50:01Z</time>
      </trkpt>
      <trkpt lat="50.2477" lon="5.02974">
        <ele>298.87631841656</ele>
        <time>2017-06-12T17:50:05Z</time>
      </trkpt>
      <trkpt lat="50.24791" lon="5.02978">
        <ele>301.24634122015</ele>
        <time>2017-06-12T17:50:10Z</time>
      </trkpt>
      <trkpt lat="50.24806" lon="5.0298">
        <ele>302.96944703845</ele>
        <time>2017-06-12T17:50:14Z</time>
      </trkpt>
      <trkpt lat="50.24822" lon="5.02981">
        <ele>306.2814429939</ele>
        <time>2017-06-12T17:50:18Z</time>
      </trkpt>
      <trkpt lat="50.24842" lon="5.02985">
        <ele>311.71505089174</ele>
        <time>2017-06-12T17:50:23Z</time>
      </trkpt>
      <trkpt lat="50.24861" lon="5.0299">
        <ele>313.52425821367</ele>
        <time>2017-06-12T17:50:27Z</time>
      </trkpt>
      <trkpt lat="50.24887" lon="5.02993">
        <ele>315.83047864622</ele>
        <time>2017-06-12T17:50:32Z</time>
      </trkpt>
      <trkpt lat="50.24911" lon="5.02995">
        <ele>313.95821547926</ele>
        <time>2017-06-12T17:50:36Z</time>
      </trkpt>
      <trkpt lat="50.24936" lon="5.02998">
        <ele>310.50029296635</ele>
        <time>2017-06-12T17:50:40Z</time>
      </trkpt>
      <trkpt lat="50.24967" lon="5.03004">
        <ele>308.25863612753</ele>
        <time>2017-06-12T17:50:45Z</time>
      </trkpt>
      <trkpt lat="50.24991" lon="5.03008">
        <ele>307.7722070604</ele>
        <time>2017-06-12T17:50:49Z</time>
      </trkpt>
      <trkpt lat="50.25016" lon="5.03013">
        <ele>307.80066618801</ele>
        <time>2017-06-12T17:50:53Z</time>
      </trkpt>
      <trkpt lat="50.25048" lon="5.03018">
        <ele>308.34553111097</ele>
        <time>2017-06-12T17:50:58Z</time>
      </trkpt>
      <trkpt lat="50.25073" lon="5.03022">
        <ele>309.08819340307</ele>
        <time>2017-06-12T17:51:02Z</time>
      </trkpt>
      <trkpt lat="50.25104" lon="5.03027">
        <ele>309.86912282668</ele>
        <time>2017-06-12T17:51:07Z</time>
      </trkpt>
      <trkpt lat="50.25127" lon="5.03031">
        <ele>310.25229333156</ele>
        <time>2017-06-12T17:51:11Z</time>
      </trkpt>
      <trkpt lat="50.25158" lon="5.03036">
        <ele>310.71420906833</ele>
        <time>2017-06-12T17:51:16Z</time>
      </trkpt>
      <trkpt lat="50.25183" lon="5.0304">
        <ele>311.18193114809</ele>
        <time>2017-06-12T17:51:20Z</time>
      </trkpt>
      <trkpt lat="50.25209" lon="5.03045">
        <ele>311.28349506729</ele>
        <time>2017-06-12T17:51:24Z</time>
      </trkpt>
      <trkpt lat="50.25241" lon="5.03052">
        <ele>311.67204418264</ele>
        <time>2017-06-12T17:51:29Z</time>
      </trkpt>
      <trkpt lat="50.25278" lon="5.03056">
        <ele>309.67123952856</ele>
        <time>2017-06-12T17:51:34Z</time>
      </trkpt>
      <trkpt lat="50.25309" lon="5.0306">
        <ele>307.46476882757</ele>
        <time>2017-06-12T17:51:38Z</time>
      </trkpt>
      <trkpt lat="50.2535" lon="5.03066">
        <ele>303.9551544274</ele>
        <time>2017-06-12T17:51:43Z</time>
      </trkpt>
      <trkpt lat="50.25381" lon="5.0307">
        <ele>302.26668496297</ele>
        <time>2017-06-12T17:51:47Z</time>
      </trkpt>
      <trkpt lat="50.2541" lon="5.03075">
        <ele>301.40784640352</ele>
        <time>2017-06-12T17:51:51Z</time>
      </trkpt>
      <trkpt lat="50.25441" lon="5.03078">
        <ele>299.87080026385</ele>
        <time>2017-06-12T17:51:55Z</time>
      </trkpt>
      <trkpt lat="50.25482" lon="5.03084">
        <ele>295.04541984206</ele>
        <time>2017-06-12T17:52:00Z</time>
      </trkpt>
      <trkpt lat="50.25514" lon="5.03091">
        <ele>291.05318831605</ele>
        <time>2017-06-12T17:52:04Z</time>
      </trkpt>
      <trkpt lat="50.25547" lon="5.03096">
        <ele>288.774256965</ele>
        <time>2017-06-12T17:52:08Z</time>
      </trkpt>
      <trkpt lat="50.25592" lon="5.03103">
        <ele>286.24746374676</ele>
        <time>2017-06-12T17:52:13Z</time>
      </trkpt>
      <trkpt lat="50.25633" lon="5.03111">
        <ele>284.56705188015</ele>
        <time>2017-06-12T17:52:17Z</time>
      </trkpt>
      <trkpt lat="50.25677" lon="5.03119">
        <ele>283.62520819091</ele>
        <time>2017-06-12T17:52:21Z</time>
      </trkpt>
      <trkpt lat="50.2574" lon="5.03128">
        <ele>280.25756368357</ele>
        <time>2017-06-12T17:52:26Z</time>
      </trkpt>
      <trkpt lat="50.2579" lon="5.03136">
        <ele>276.45197003732</ele>
        <time>2017-06-12T17:52:30Z</time>
      </trkpt>
      <trkpt lat="50.25837" lon="5.03143">
        <ele>272.74362093935</ele>
        <time>2017-06-12T17:52:34Z</time>
      </trkpt>
      <trkpt lat="50.25879" lon="5.0315">
        <ele>270.4051546881</ele>
        <time>2017-06-12T17:52:38Z</time>
      </trkpt>
      <trkpt lat="50.25914" lon="5.03156">
        <ele>269.90012419045</ele>
        <time>2017-06-12T17:52:42Z</time>
      </trkpt>
      <trkpt lat="50.25936" lon="5.03169">
        <ele>269.93775174317</ele>
        <time>2017-06-12T17:52:46Z</time>
      </trkpt>
      <trkpt lat="50.25934" lon="5.03197">
        <ele>270.95542580665</ele>
        <time>2017-06-12T17:52:50Z</time>
      </trkpt>
      <trkpt lat="50.25929" lon="5.03238">
        <ele>273.35944787581</ele>
        <time>2017-06-12T17:52:55Z</time>
      </trkpt>
      <trkpt lat="50.25925" lon="5.03281">
        <ele>274.9787994506</ele>
        <time>2017-06-12T17:53:00Z</time>
      </trkpt>
      <trkpt lat="50.2592" lon="5.0332">
        <ele>275.5648070749</ele>
        <time>2017-06-12T17:53:04Z</time>
      </trkpt>
      <trkpt lat="50.25912" lon="5.0336">
        <ele>274.6766012815</ele>
        <time>2017-06-12T17:53:08Z</time>
      </trkpt>
      <trkpt lat="50.25899" lon="5.03404">
        <ele>273.99523643755</ele>
        <time>2017-06-12T17:53:12Z</time>
      </trkpt>
      <trkpt lat="50.25887" lon="5.03447">
        <ele>274.75027032076</ele>
        <time>2017-06-12T17:53:16Z</time>
      </trkpt>
      <trkpt lat="50.25876" lon="5.03493">
        <ele>275.03648729259</ele>
        <time>2017-06-12T17:53:20Z</time>
      </trkpt>
      <trkpt lat="50.2586" lon="5.0355">
        <ele>274.49680471736</ele>
        <time>2017-06-12T17:53:25Z</time>
      </trkpt>
      <trkpt lat="50.25837" lon="5.03574">
        <ele>272.44899489556</ele>
        <time>2017-06-12T17:53:29Z</time>
      </trkpt>
      <trkpt lat="50.2582" lon="5.03606">
        <ele>270.48399197819</ele>
        <time>2017-06-12T17:53:34Z</time>
      </trkpt>
      <trkpt lat="50.25824" lon="5.03643">
        <ele>269.96122840828</ele>
        <time>2017-06-12T17:53:38Z</time>
      </trkpt>
      <trkpt lat="50.25829" lon="5.03693">
        <ele>269.91301598846</ele>
        <time>2017-06-12T17:53:43Z</time>
      </trkpt>
      <trkpt lat="50.25828" lon="5.03726">
        <ele>271.1384531918</ele>
        <time>2017-06-12T17:53:47Z</time>
      </trkpt>
      <trkpt lat="50.25836" lon="5.03757">
        <ele>272.28892020874</ele>
        <time>2017-06-12T17:53:51Z</time>
      </trkpt>
      <trkpt lat="50.25846" lon="5.03786">
        <ele>272.4509167601</ele>
        <time>2017-06-12T17:53:55Z</time>
      </trkpt>
      <trkpt lat="50.25857" lon="5.03819">
        <ele>273.12907697263</ele>
        <time>2017-06-12T17:54:00Z</time>
      </trkpt>
      <trkpt lat="50.25865" lon="5.03847">
        <ele>273.90803370471</ele>
        <time>2017-06-12T17:54:04Z</time>
      </trkpt>
      <trkpt lat="50.25874" lon="5.03873">
        <ele>275.05448101</ele>
        <time>2017-06-12T17:54:08Z</time>
      </trkpt>
      <trkpt lat="50.25884" lon="5.03901">
        <ele>275.68364363717</ele>
        <time>2017-06-12T17:54:12Z</time>
      </trkpt>
      <trkpt lat="50.25893" lon="5.03926">
        <ele>276.23870428989</ele>
        <time>2017-06-12T17:54:16Z</time>
      </trkpt>
      <trkpt lat="50.25903" lon="5.03959">
        <ele>277.47412811875</ele>
        <time>2017-06-12T17:54:21Z</time>
      </trkpt>
      <trkpt lat="50.25908" lon="5.03986">
        <ele>278.61638677574</ele>
        <time>2017-06-12T17:54:25Z</time>
      </trkpt>
      <trkpt lat="50.25911" lon="5.04015">
        <ele>280.98643857125</ele>
        <time>2017-06-12T17:54:30Z</time>
      </trkpt>
      <trkpt lat="50.25913" lon="5.04041">
        <ele>282.89780921795</ele>
        <time>2017-06-12T17:54:34Z</time>
      </trkpt>
      <trkpt lat="50.25915" lon="5.04076">
        <ele>285.12298479542</ele>
        <time>2017-06-12T17:54:39Z</time>
      </trkpt>
      <trkpt lat="50.25916" lon="5.04106">
        <ele>287.27785242844</ele>
        <time>2017-06-12T17:54:43Z</time>
      </trkpt>
      <trkpt lat="50.25916" lon="5.04138">
        <ele>289.30728687671</ele>
        <time>2017-06-12T17:54:47Z</time>
      </trkpt>
      <trkpt lat="50.25913" lon="5.0417">
        <ele>290.95384912258</ele>
        <time>2017-06-12T17:54:51Z</time>
      </trkpt>
      <trkpt lat="50.25912" lon="5.04202">
        <ele>292.4433424456</ele>
        <time>2017-06-12T17:54:55Z</time>
      </trkpt>
      <trkpt lat="50.25906" lon="5.04235">
        <ele>293.08114321627</ele>
        <time>2017-06-12T17:54:59Z</time>
      </trkpt>
      <trkpt lat="50.25896" lon="5.04272">
        <ele>291.42211446179</ele>
        <time>2017-06-12T17:55:04Z</time>
      </trkpt>
      <trkpt lat="50.25896" lon="5.04316">
        <ele>290.5127945728</ele>
        <time>2017-06-12T17:55:09Z</time>
      </trkpt>
      <trkpt lat="50.25903" lon="5.04348">
        <ele>290.86592252139</ele>
        <time>2017-06-12T17:55:13Z</time>
      </trkpt>
      <trkpt lat="50.25918" lon="5.04385">
        <ele>291.47269371132</ele>
        <time>2017-06-12T17:55:18Z</time>
      </trkpt>
      <trkpt lat="50.25933" lon="5.04411">
        <ele>291.99739606182</ele>
        <time>2017-06-12T17:55:22Z</time>
      </trkpt>
      <trkpt lat="50.25941" lon="5.04451">
        <ele>291.59953874533</ele>
        <time>2017-06-12T17:55:26Z</time>
      </trkpt>
      <trkpt lat="50.25952" lon="5.04491">
        <ele>292.83673746062</ele>
        <time>2017-06-12T17:55:30Z</time>
      </trkpt>
      <trkpt lat="50.25955" lon="5.0453">
        <ele>293.67986369936</ele>
        <time>2017-06-12T17:55:34Z</time>
      </trkpt>
      <trkpt lat="50.25956" lon="5.04565">
        <ele>293.004751292</ele>
        <time>2017-06-12T17:55:38Z</time>
      </trkpt>
      <trkpt lat="50.25965" lon="5.04608">
        <ele>291.74727438553</ele>
        <time>2017-06-12T17:55:43Z</time>
      </trkpt>
      <trkpt lat="50.25975" lon="5.0464">
        <ele>292.81361741608</ele>
        <time>2017-06-12T17:55:47Z</time>
      </trkpt>
      <trkpt lat="50.25989" lon="5.04671">
        <ele>294.39822737564</ele>
        <time>2017-06-12T17:55:51Z</time>
      </trkpt>
      <trkpt lat="50.26003" lon="5.04704">
        <ele>293.85629455766</ele>
        <time>2017-06-12T17:55:55Z</time>
      </trkpt>
      <trkpt lat="50.26018" lon="5.04734">
        <ele>292.51453353687</ele>
        <time>2017-06-12T17:55:59Z</time>
      </trkpt>
      <trkpt lat="50.26033" lon="5.0476">
        <ele>292.05713983087</ele>
        <time>2017-06-12T17:56:03Z</time>
      </trkpt>
      <trkpt lat="50.26051" lon="5.04761">
        <ele>292.12203008126</ele>
        <time>2017-06-12T17:56:07Z</time>
      </trkpt>
      <trkpt lat="50.26068" lon="5.04741">
        <ele>294.17714944625</ele>
        <time>2017-06-12T17:56:12Z</time>
      </trkpt>
      <trkpt lat="50.26084" lon="5.04728">
        <ele>295.56447694893</ele>
        <time>2017-06-12T17:56:16Z</time>
      </trkpt>
      <trkpt lat="50.26102" lon="5.04722">
        <ele>296.57745062425</ele>
        <time>2017-06-12T17:56:20Z</time>
      </trkpt>
      <trkpt lat="50.26128" lon="5.0472">
        <ele>297.96875378299</ele>
        <time>2017-06-12T17:56:25Z</time>
      </trkpt>
      <trkpt lat="50.2615" lon="5.04721">
        <ele>298.89192631974</ele>
        <time>2017-06-12T17:56:29Z</time>
      </trkpt>
      <trkpt lat="50.26176" lon="5.04723">
        <ele>300.88796276201</ele>
        <time>2017-06-12T17:56:34Z</time>
      </trkpt>
      <trkpt lat="50.26204" lon="5.04725">
        <ele>302.21360192879</ele>
        <time>2017-06-12T17:56:39Z</time>
      </trkpt>
      <trkpt lat="50.26226" lon="5.04727">
        <ele>301.61402599622</ele>
        <time>2017-06-12T17:56:43Z</time>
      </trkpt>
      <trkpt lat="50.26248" lon="5.04727">
        <ele>301.09503762075</ele>
        <time>2017-06-12T17:56:47Z</time>
      </trkpt>
      <trkpt lat="50.2628" lon="5.04721">
        <ele>300.00882886714</ele>
        <time>2017-06-12T17:56:52Z</time>
      </trkpt>
      <trkpt lat="50.2631" lon="5.04711">
        <ele>298.63679815414</ele>
        <time>2017-06-12T17:56:56Z</time>
      </trkpt>
      <trkpt lat="50.26352" lon="5.04697">
        <ele>296.99597070976</ele>
        <time>2017-06-12T17:57:01Z</time>
      </trkpt>
      <trkpt lat="50.26386" lon="5.04686">
        <ele>295.70011160467</ele>
        <time>2017-06-12T17:57:05Z</time>
      </trkpt>
      <trkpt lat="50.26425" lon="5.04674">
        <ele>294.34540020857</ele>
        <time>2017-06-12T17:57:10Z</time>
      </trkpt>
      <trkpt lat="50.26454" lon="5.04666">
        <ele>294.53202852409</ele>
        <time>2017-06-12T17:57:15Z</time>
      </trkpt>
      <trkpt lat="50.26476" lon="5.04658">
        <ele>295.31081005729</ele>
        <time>2017-06-12T17:57:19Z</time>
      </trkpt>
      <trkpt lat="50.265" lon="5.0465">
        <ele>295.56091365674</ele>
        <time>2017-06-12T17:57:23Z</time>
      </trkpt>
      <trkpt lat="50.26529" lon="5.04643">
        <ele>295.99886685411</ele>
        <time>2017-06-12T17:57:28Z</time>
      </trkpt>
      <trkpt lat="50.26551" lon="5.04636">
        <ele>296.14225936888</ele>
        <time>2017-06-12T17:57:32Z</time>
      </trkpt>
      <trkpt lat="50.26572" lon="5.0463">
        <ele>296.93611061476</ele>
        <time>2017-06-12T17:57:36Z</time>
      </trkpt>
      <trkpt lat="50.26597" lon="5.04622">
        <ele>298.18829326307</ele>
        <time>2017-06-12T17:57:41Z</time>
      </trkpt>
      <trkpt lat="50.26617" lon="5.04617">
        <ele>300.17523300631</ele>
        <time>2017-06-12T17:57:45Z</time>
      </trkpt>
      <trkpt lat="50.26632" lon="5.04612">
        <ele>301.32629791854</ele>
        <time>2017-06-12T17:57:49Z</time>
      </trkpt>
      <trkpt lat="50.26654" lon="5.04604">
        <ele>302.06573319823</ele>
        <time>2017-06-12T17:57:54Z</time>
      </trkpt>
      <trkpt lat="50.26669" lon="5.04608">
        <ele>301.67072444551</ele>
        <time>2017-06-12T17:57:58Z</time>
      </trkpt>
      <trkpt lat="50.26672" lon="5.04634">
        <ele>302.04741226112</ele>
        <time>2017-06-12T17:58:02Z</time>
      </trkpt>
      <trkpt lat="50.2668" lon="5.04679">
        <ele>303.47168896595</ele>
        <time>2017-06-12T17:58:07Z</time>
      </trkpt>
      <trkpt lat="50.26684" lon="5.04718">
        <ele>303.82974770385</ele>
        <time>2017-06-12T17:58:11Z</time>
      </trkpt>
      <trkpt lat="50.26687" lon="5.04763">
        <ele>304.14180882853</ele>
        <time>2017-06-12T17:58:16Z</time>
      </trkpt>
      <trkpt lat="50.2669" lon="5.04809">
        <ele>305.29714511952</ele>
        <time>2017-06-12T17:58:21Z</time>
      </trkpt>
      <trkpt lat="50.26693" lon="5.04845">
        <ele>305.36461521832</ele>
        <time>2017-06-12T17:58:25Z</time>
      </trkpt>
      <trkpt lat="50.26697" lon="5.04882">
        <ele>305.5926426205</ele>
        <time>2017-06-12T17:58:29Z</time>
      </trkpt>
      <trkpt lat="50.26701" lon="5.04918">
        <ele>305.91881529847</ele>
        <time>2017-06-12T17:58:33Z</time>
      </trkpt>
      <trkpt lat="50.26708" lon="5.04965">
        <ele>306.08438193532</ele>
        <time>2017-06-12T17:58:38Z</time>
      </trkpt>
      <trkpt lat="50.26715" lon="5.05001">
        <ele>306.19520191634</ele>
        <time>2017-06-12T17:58:42Z</time>
      </trkpt>
      <trkpt lat="50.26722" lon="5.05047">
        <ele>306.16983444386</ele>
        <time>2017-06-12T17:58:47Z</time>
      </trkpt>
      <trkpt lat="50.26728" lon="5.05084">
        <ele>306.10289949422</ele>
        <time>2017-06-12T17:58:51Z</time>
      </trkpt>
      <trkpt lat="50.26736" lon="5.0513">
        <ele>305.47905605624</ele>
        <time>2017-06-12T17:58:56Z</time>
      </trkpt>
      <trkpt lat="50.26742" lon="5.05166">
        <ele>305.69615663291</ele>
        <time>2017-06-12T17:59:00Z</time>
      </trkpt>
      <trkpt lat="50.26748" lon="5.05203">
        <ele>306.93286218901</ele>
        <time>2017-06-12T17:59:04Z</time>
      </trkpt>
      <trkpt lat="50.26753" lon="5.05241">
        <ele>308.20290783372</ele>
        <time>2017-06-12T17:59:08Z</time>
      </trkpt>
      <trkpt lat="50.26759" lon="5.05278">
        <ele>308.28853854983</ele>
        <time>2017-06-12T17:59:12Z</time>
      </trkpt>
      <trkpt lat="50.26765" lon="5.05314">
        <ele>308.49738254342</ele>
        <time>2017-06-12T17:59:16Z</time>
      </trkpt>
      <trkpt lat="50.26773" lon="5.05353">
        <ele>308.85881501133</ele>
        <time>2017-06-12T17:59:20Z</time>
      </trkpt>
      <trkpt lat="50.26783" lon="5.05387">
        <ele>309.010154864</ele>
        <time>2017-06-12T17:59:24Z</time>
      </trkpt>
      <trkpt lat="50.26795" lon="5.0542">
        <ele>308.9806657032</ele>
        <time>2017-06-12T17:59:28Z</time>
      </trkpt>
      <trkpt lat="50.26812" lon="5.05463">
        <ele>308.70475842509</ele>
        <time>2017-06-12T17:59:33Z</time>
      </trkpt>
      <trkpt lat="50.26825" lon="5.05495">
        <ele>308.84285238528</ele>
        <time>2017-06-12T17:59:37Z</time>
      </trkpt>
      <trkpt lat="50.26838" lon="5.05526">
        <ele>309.50021497316</ele>
        <time>2017-06-12T17:59:41Z</time>
      </trkpt>
      <trkpt lat="50.26856" lon="5.05564">
        <ele>309.9185698539</ele>
        <time>2017-06-12T17:59:46Z</time>
      </trkpt>
      <trkpt lat="50.26869" lon="5.05596">
        <ele>309.41415500977</ele>
        <time>2017-06-12T17:59:50Z</time>
      </trkpt>
      <trkpt lat="50.26886" lon="5.05635">
        <ele>308.60610229222</ele>
        <time>2017-06-12T17:59:55Z</time>
      </trkpt>
      <trkpt lat="50.26902" lon="5.05674">
        <ele>309.59488083868</ele>
        <time>2017-06-12T18:00:00Z</time>
      </trkpt>
      <trkpt lat="50.26915" lon="5.05704">
        <ele>310.52621290826</ele>
        <time>2017-06-12T18:00:04Z</time>
      </trkpt>
      <trkpt lat="50.26929" lon="5.0574">
        <ele>312.26763027084</ele>
        <time>2017-06-12T18:00:09Z</time>
      </trkpt>
      <trkpt lat="50.26943" lon="5.05772">
        <ele>313.84458278153</ele>
        <time>2017-06-12T18:00:13Z</time>
      </trkpt>
      <trkpt lat="50.26957" lon="5.05804">
        <ele>314.29935375018</ele>
        <time>2017-06-12T18:00:17Z</time>
      </trkpt>
      <trkpt lat="50.26972" lon="5.05834">
        <ele>314.46971572827</ele>
        <time>2017-06-12T18:00:21Z</time>
      </trkpt>
      <trkpt lat="50.26987" lon="5.05864">
        <ele>314.21625684774</ele>
        <time>2017-06-12T18:00:25Z</time>
      </trkpt>
      <trkpt lat="50.27009" lon="5.05903">
        <ele>313.64038353875</ele>
        <time>2017-06-12T18:00:30Z</time>
      </trkpt>
      <trkpt lat="50.27026" lon="5.05934">
        <ele>312.57473554267</ele>
        <time>2017-06-12T18:00:34Z</time>
      </trkpt>
      <trkpt lat="50.27043" lon="5.05965">
        <ele>312.4357755967</ele>
        <time>2017-06-12T18:00:38Z</time>
      </trkpt>
      <trkpt lat="50.2706" lon="5.05996">
        <ele>312.76676733919</ele>
        <time>2017-06-12T18:00:42Z</time>
      </trkpt>
      <trkpt lat="50.27082" lon="5.06035">
        <ele>313.06069717104</ele>
        <time>2017-06-12T18:00:47Z</time>
      </trkpt>
      <trkpt lat="50.27097" lon="5.06065">
        <ele>312.92825807687</ele>
        <time>2017-06-12T18:00:51Z</time>
      </trkpt>
      <trkpt lat="50.27113" lon="5.06096">
        <ele>313.52895106303</ele>
        <time>2017-06-12T18:00:55Z</time>
      </trkpt>
      <trkpt lat="50.27129" lon="5.06127">
        <ele>314.61082449</ele>
        <time>2017-06-12T18:00:59Z</time>
      </trkpt>
      <trkpt lat="50.27145" lon="5.06157">
        <ele>316.64215873891</ele>
        <time>2017-06-12T18:01:03Z</time>
      </trkpt>
      <trkpt lat="50.27161" lon="5.06187">
        <ele>316.86056021584</ele>
        <time>2017-06-12T18:01:07Z</time>
      </trkpt>
      <trkpt lat="50.2718" lon="5.06226">
        <ele>316.87979519331</ele>
        <time>2017-06-12T18:01:12Z</time>
      </trkpt>
      <trkpt lat="50.27195" lon="5.06259">
        <ele>316.98270277714</ele>
        <time>2017-06-12T18:01:16Z</time>
      </trkpt>
      <trkpt lat="50.27213" lon="5.06301">
        <ele>317.51390178088</ele>
        <time>2017-06-12T18:01:21Z</time>
      </trkpt>
      <trkpt lat="50.27233" lon="5.06346">
        <ele>317.37961037639</ele>
        <time>2017-06-12T18:01:26Z</time>
      </trkpt>
      <trkpt lat="50.27248" lon="5.0638">
        <ele>315.43704071788</ele>
        <time>2017-06-12T18:01:30Z</time>
      </trkpt>
      <trkpt lat="50.27263" lon="5.06413">
        <ele>313.69939409515</ele>
        <time>2017-06-12T18:01:34Z</time>
      </trkpt>
      <trkpt lat="50.27281" lon="5.06455">
        <ele>311.90861543801</ele>
        <time>2017-06-12T18:01:39Z</time>
      </trkpt>
      <trkpt lat="50.27299" lon="5.06496">
        <ele>311.90236550564</ele>
        <time>2017-06-12T18:01:44Z</time>
      </trkpt>
      <trkpt lat="50.27314" lon="5.06528">
        <ele>313.08310283178</ele>
        <time>2017-06-12T18:01:48Z</time>
      </trkpt>
      <trkpt lat="50.2733" lon="5.06563">
        <ele>313.80183594287</ele>
        <time>2017-06-12T18:01:52Z</time>
      </trkpt>
      <trkpt lat="50.27346" lon="5.06595">
        <ele>313.51134757111</ele>
        <time>2017-06-12T18:01:56Z</time>
      </trkpt>
      <trkpt lat="50.27365" lon="5.0663">
        <ele>313.26952612127</ele>
        <time>2017-06-12T18:02:01Z</time>
      </trkpt>
      <trkpt lat="50.27385" lon="5.06667">
        <ele>313.42246696612</ele>
        <time>2017-06-12T18:02:06Z</time>
      </trkpt>
      <trkpt lat="50.27401" lon="5.06696">
        <ele>314.37086378154</ele>
        <time>2017-06-12T18:02:10Z</time>
      </trkpt>
      <trkpt lat="50.27418" lon="5.06727">
        <ele>314.80492421273</ele>
        <time>2017-06-12T18:02:14Z</time>
      </trkpt>
      <trkpt lat="50.27439" lon="5.0677">
        <ele>315.121485547</ele>
        <time>2017-06-12T18:02:19Z</time>
      </trkpt>
      <trkpt lat="50.27455" lon="5.06806">
        <ele>314.16140334313</ele>
        <time>2017-06-12T18:02:23Z</time>
      </trkpt>
      <trkpt lat="50.27473" lon="5.06854">
        <ele>312.61644194152</ele>
        <time>2017-06-12T18:02:28Z</time>
      </trkpt>
      <trkpt lat="50.27487" lon="5.06896">
        <ele>311.96432800061</ele>
        <time>2017-06-12T18:02:32Z</time>
      </trkpt>
      <trkpt lat="50.275" lon="5.06941">
        <ele>310.45364989455</ele>
        <time>2017-06-12T18:02:36Z</time>
      </trkpt>
      <trkpt lat="50.27518" lon="5.07003">
        <ele>307.99306484484</ele>
        <time>2017-06-12T18:02:41Z</time>
      </trkpt>
      <trkpt lat="50.27533" lon="5.07056">
        <ele>306.3940917061</ele>
        <time>2017-06-12T18:02:45Z</time>
      </trkpt>
      <trkpt lat="50.2755" lon="5.07125">
        <ele>303.98572881912</ele>
        <time>2017-06-12T18:02:50Z</time>
      </trkpt>
      <trkpt lat="50.27567" lon="5.07179">
        <ele>302.38695875385</ele>
        <time>2017-06-12T18:02:55Z</time>
      </trkpt>
      <trkpt lat="50.27578" lon="5.07214">
        <ele>301.54979379372</ele>
        <time>2017-06-12T18:02:59Z</time>
      </trkpt>
      <trkpt lat="50.27592" lon="5.07249">
        <ele>300.62234485583</ele>
        <time>2017-06-12T18:03:03Z</time>
      </trkpt>
      <trkpt lat="50.27609" lon="5.07291">
        <ele>300.30281938042</ele>
        <time>2017-06-12T18:03:08Z</time>
      </trkpt>
      <trkpt lat="50.27627" lon="5.07335">
        <ele>300.5628339725</ele>
        <time>2017-06-12T18:03:13Z</time>
      </trkpt>
      <trkpt lat="50.27646" lon="5.07379">
        <ele>300.09394324139</ele>
        <time>2017-06-12T18:03:18Z</time>
      </trkpt>
      <trkpt lat="50.27662" lon="5.07414">
        <ele>298.59606126759</ele>
        <time>2017-06-12T18:03:22Z</time>
      </trkpt>
      <trkpt lat="50.27683" lon="5.07461">
        <ele>295.73638633832</ele>
        <time>2017-06-12T18:03:27Z</time>
      </trkpt>
      <trkpt lat="50.27701" lon="5.075">
        <ele>293.87856860823</ele>
        <time>2017-06-12T18:03:31Z</time>
      </trkpt>
      <trkpt lat="50.27726" lon="5.07554">
        <ele>292.51777322553</ele>
        <time>2017-06-12T18:03:36Z</time>
      </trkpt>
      <trkpt lat="50.27748" lon="5.07603">
        <ele>289.52457089636</ele>
        <time>2017-06-12T18:03:40Z</time>
      </trkpt>
      <trkpt lat="50.27777" lon="5.07672">
        <ele>285.32519333287</ele>
        <time>2017-06-12T18:03:45Z</time>
      </trkpt>
      <trkpt lat="50.27803" lon="5.07734">
        <ele>281.80056632053</ele>
        <time>2017-06-12T18:03:49Z</time>
      </trkpt>
      <trkpt lat="50.27837" lon="5.0781">
        <ele>278.53392561123</ele>
        <time>2017-06-12T18:03:54Z</time>
      </trkpt>
      <trkpt lat="50.27869" lon="5.07863">
        <ele>275.98813606383</ele>
        <time>2017-06-12T18:03:58Z</time>
      </trkpt>
      <trkpt lat="50.27905" lon="5.07902">
        <ele>274.98222409598</ele>
        <time>2017-06-12T18:04:02Z</time>
      </trkpt>
      <trkpt lat="50.27949" lon="5.07944">
        <ele>274.51323112427</ele>
        <time>2017-06-12T18:04:07Z</time>
      </trkpt>
      <trkpt lat="50.27991" lon="5.07983">
        <ele>273.69236662613</ele>
        <time>2017-06-12T18:04:12Z</time>
      </trkpt>
      <trkpt lat="50.28019" lon="5.08011">
        <ele>273.11964748993</ele>
        <time>2017-06-12T18:04:16Z</time>
      </trkpt>
      <trkpt lat="50.28046" lon="5.08038">
        <ele>273.14274114907</ele>
        <time>2017-06-12T18:04:20Z</time>
      </trkpt>
      <trkpt lat="50.2807" lon="5.08062">
        <ele>273.85542299287</ele>
        <time>2017-06-12T18:04:24Z</time>
      </trkpt>
      <trkpt lat="50.28094" lon="5.08085">
        <ele>275.65387091919</ele>
        <time>2017-06-12T18:04:28Z</time>
      </trkpt>
      <trkpt lat="50.28124" lon="5.08116">
        <ele>276.46629095074</ele>
        <time>2017-06-12T18:04:33Z</time>
      </trkpt>
      <trkpt lat="50.28151" lon="5.08144">
        <ele>276.9681838516</ele>
        <time>2017-06-12T18:04:38Z</time>
      </trkpt>
      <trkpt lat="50.28174" lon="5.08167">
        <ele>276.94285802476</ele>
        <time>2017-06-12T18:04:42Z</time>
      </trkpt>
      <trkpt lat="50.28203" lon="5.08197">
        <ele>276.67547679536</ele>
        <time>2017-06-12T18:04:47Z</time>
      </trkpt>
      <trkpt lat="50.28225" lon="5.08222">
        <ele>276.44326745797</ele>
        <time>2017-06-12T18:04:51Z</time>
      </trkpt>
      <trkpt lat="50.28253" lon="5.0825">
        <ele>275.6347034039</ele>
        <time>2017-06-12T18:04:56Z</time>
      </trkpt>
      <trkpt lat="50.28274" lon="5.08271">
        <ele>275.79055169165</ele>
        <time>2017-06-12T18:05:00Z</time>
      </trkpt>
      <trkpt lat="50.28297" lon="5.08294">
        <ele>276.36964646055</ele>
        <time>2017-06-12T18:05:05Z</time>
      </trkpt>
      <trkpt lat="50.28317" lon="5.08316">
        <ele>275.19763941199</ele>
        <time>2017-06-12T18:05:09Z</time>
      </trkpt>
      <trkpt lat="50.28341" lon="5.08336">
        <ele>275.4972482116</ele>
        <time>2017-06-12T18:05:13Z</time>
      </trkpt>
      <trkpt lat="50.28365" lon="5.08357">
        <ele>276.38370435976</ele>
        <time>2017-06-12T18:05:17Z</time>
      </trkpt>
      <trkpt lat="50.28394" lon="5.08385">
        <ele>275.03164914833</ele>
        <time>2017-06-12T18:05:22Z</time>
      </trkpt>
      <trkpt lat="50.28417" lon="5.08408">
        <ele>274.21308468594</ele>
        <time>2017-06-12T18:05:26Z</time>
      </trkpt>
      <trkpt lat="50.2844" lon="5.0843">
        <ele>273.75615023709</ele>
        <time>2017-06-12T18:05:30Z</time>
      </trkpt>
      <trkpt lat="50.28463" lon="5.08454">
        <ele>275.45046499268</ele>
        <time>2017-06-12T18:05:34Z</time>
      </trkpt>
      <trkpt lat="50.28493" lon="5.08484">
        <ele>276.58715646696</ele>
        <time>2017-06-12T18:05:39Z</time>
      </trkpt>
      <trkpt lat="50.2852" lon="5.08511">
        <ele>275.60936136313</ele>
        <time>2017-06-12T18:05:43Z</time>
      </trkpt>
      <trkpt lat="50.28546" lon="5.08537">
        <ele>275.78187194201</ele>
        <time>2017-06-12T18:05:47Z</time>
      </trkpt>
      <trkpt lat="50.28572" lon="5.08566">
        <ele>273.54578009433</ele>
        <time>2017-06-12T18:05:51Z</time>
      </trkpt>
      <trkpt lat="50.28606" lon="5.08599">
        <ele>267.8233729812</ele>
        <time>2017-06-12T18:05:56Z</time>
      </trkpt>
      <trkpt lat="50.28634" lon="5.08626">
        <ele>265.23456337601</ele>
        <time>2017-06-12T18:06:00Z</time>
      </trkpt>
      <trkpt lat="50.2866" lon="5.08653">
        <ele>263.39961137899</ele>
        <time>2017-06-12T18:06:04Z</time>
      </trkpt>
      <trkpt lat="50.28688" lon="5.08681">
        <ele>261.09421791102</ele>
        <time>2017-06-12T18:06:08Z</time>
      </trkpt>
      <trkpt lat="50.28716" lon="5.08709">
        <ele>260.25625398991</ele>
        <time>2017-06-12T18:06:12Z</time>
      </trkpt>
      <trkpt lat="50.28752" lon="5.08743">
        <ele>259.95251973765</ele>
        <time>2017-06-12T18:06:17Z</time>
      </trkpt>
      <trkpt lat="50.28782" lon="5.08771">
        <ele>261.34584068387</ele>
        <time>2017-06-12T18:06:21Z</time>
      </trkpt>
      <trkpt lat="50.28808" lon="5.08796">
        <ele>262.37000836422</ele>
        <time>2017-06-12T18:06:25Z</time>
      </trkpt>
      <trkpt lat="50.28836" lon="5.08823">
        <ele>261.35516201884</ele>
        <time>2017-06-12T18:06:29Z</time>
      </trkpt>
      <trkpt lat="50.28869" lon="5.08856">
        <ele>263.31826796341</ele>
        <time>2017-06-12T18:06:34Z</time>
      </trkpt>
      <trkpt lat="50.28892" lon="5.08881">
        <ele>263.21319399981</ele>
        <time>2017-06-12T18:06:38Z</time>
      </trkpt>
      <trkpt lat="50.28928" lon="5.08917">
        <ele>257.81307497347</ele>
        <time>2017-06-12T18:06:43Z</time>
      </trkpt>
      <trkpt lat="50.28954" lon="5.08955">
        <ele>252.65627496242</ele>
        <time>2017-06-12T18:06:47Z</time>
      </trkpt>
      <trkpt lat="50.28975" lon="5.09">
        <ele>249.20191807505</ele>
        <time>2017-06-12T18:06:51Z</time>
      </trkpt>
      <trkpt lat="50.28999" lon="5.09053">
        <ele>246.93307989944</ele>
        <time>2017-06-12T18:06:56Z</time>
      </trkpt>
      <trkpt lat="50.29017" lon="5.09093">
        <ele>245.69269952667</ele>
        <time>2017-06-12T18:07:00Z</time>
      </trkpt>
      <trkpt lat="50.29036" lon="5.09122">
        <ele>244.11404058453</ele>
        <time>2017-06-12T18:07:05Z</time>
      </trkpt>
      <trkpt lat="50.29051" lon="5.09099">
        <ele>242.6544598538</ele>
        <time>2017-06-12T18:07:10Z</time>
      </trkpt>
      <trkpt lat="50.2907" lon="5.09074">
        <ele>240.8861924391</ele>
        <time>2017-06-12T18:07:14Z</time>
      </trkpt>
      <trkpt lat="50.291" lon="5.09046">
        <ele>240.6513603832</ele>
        <time>2017-06-12T18:07:19Z</time>
      </trkpt>
      <trkpt lat="50.29123" lon="5.09025">
        <ele>240.90568654311</ele>
        <time>2017-06-12T18:07:23Z</time>
      </trkpt>
      <trkpt lat="50.29145" lon="5.09003">
        <ele>240.08736904005</ele>
        <time>2017-06-12T18:07:27Z</time>
      </trkpt>
      <trkpt lat="50.29174" lon="5.08977">
        <ele>238.94037873518</ele>
        <time>2017-06-12T18:07:32Z</time>
      </trkpt>
      <trkpt lat="50.29199" lon="5.08968">
        <ele>239.44448976101</ele>
        <time>2017-06-12T18:07:36Z</time>
      </trkpt>
      <trkpt lat="50.29224" lon="5.0897">
        <ele>239.46607662588</ele>
        <time>2017-06-12T18:07:40Z</time>
      </trkpt>
      <trkpt lat="50.29253" lon="5.08964">
        <ele>240.0757172906</ele>
        <time>2017-06-12T18:07:45Z</time>
      </trkpt>
      <trkpt lat="50.29276" lon="5.08948">
        <ele>241.32226875667</ele>
        <time>2017-06-12T18:07:50Z</time>
      </trkpt>
      <trkpt lat="50.29292" lon="5.08934">
        <ele>242.42244621841</ele>
        <time>2017-06-12T18:07:54Z</time>
      </trkpt>
      <trkpt lat="50.29308" lon="5.08935">
        <ele>244.06349968435</ele>
        <time>2017-06-12T18:07:58Z</time>
      </trkpt>
      <trkpt lat="50.29329" lon="5.08959">
        <ele>247.38003205685</ele>
        <time>2017-06-12T18:08:03Z</time>
      </trkpt>
      <trkpt lat="50.29356" lon="5.08988">
        <ele>249.52102501816</ele>
        <time>2017-06-12T18:08:08Z</time>
      </trkpt>
      <trkpt lat="50.29379" lon="5.09012">
        <ele>248.48480187231</ele>
        <time>2017-06-12T18:08:12Z</time>
      </trkpt>
      <trkpt lat="50.29399" lon="5.09041">
        <ele>245.93998768822</ele>
        <time>2017-06-12T18:08:17Z</time>
      </trkpt>
      <trkpt lat="50.29421" lon="5.09025">
        <ele>243.33779299713</ele>
        <time>2017-06-12T18:08:22Z</time>
      </trkpt>
      <trkpt lat="50.29448" lon="5.08988">
        <ele>241.43273412936</ele>
        <time>2017-06-12T18:08:27Z</time>
      </trkpt>
      <trkpt lat="50.29472" lon="5.08958">
        <ele>240.32244258851</ele>
        <time>2017-06-12T18:08:31Z</time>
      </trkpt>
      <trkpt lat="50.29506" lon="5.0893">
        <ele>238.58155116129</ele>
        <time>2017-06-12T18:08:36Z</time>
      </trkpt>
      <trkpt lat="50.29545" lon="5.08916">
        <ele>236.34142783924</ele>
        <time>2017-06-12T18:08:41Z</time>
      </trkpt>
      <trkpt lat="50.2958" lon="5.08907">
        <ele>233.80321421405</ele>
        <time>2017-06-12T18:08:45Z</time>
      </trkpt>
      <trkpt lat="50.29611" lon="5.08904">
        <ele>233.00626399075</ele>
        <time>2017-06-12T18:08:49Z</time>
      </trkpt>
      <trkpt lat="50.2963" lon="5.08939">
        <ele>234.23390994832</ele>
        <time>2017-06-12T18:08:54Z</time>
      </trkpt>
      <trkpt lat="50.29639" lon="5.08962">
        <ele>237.2323242525</ele>
        <time>2017-06-12T18:08:58Z</time>
      </trkpt>
      <trkpt lat="50.29646" lon="5.08982">
        <ele>239.31963041899</ele>
        <time>2017-06-12T18:09:02Z</time>
      </trkpt>
      <trkpt lat="50.29655" lon="5.09002">
        <ele>241.7054412224</ele>
        <time>2017-06-12T18:09:06Z</time>
      </trkpt>
      <trkpt lat="50.29661" lon="5.09021">
        <ele>244.64956579955</ele>
        <time>2017-06-12T18:09:10Z</time>
      </trkpt>
      <trkpt lat="50.29661" lon="5.09046">
        <ele>247.3403785764</ele>
        <time>2017-06-12T18:09:14Z</time>
      </trkpt>
      <trkpt lat="50.29656" lon="5.09075">
        <ele>249.90381364013</ele>
        <time>2017-06-12T18:09:19Z</time>
      </trkpt>
      <trkpt lat="50.29653" lon="5.09098">
        <ele>252.70206310837</ele>
        <time>2017-06-12T18:09:23Z</time>
      </trkpt>
      <trkpt lat="50.29647" lon="5.09127">
        <ele>253.48713876011</ele>
        <time>2017-06-12T18:09:28Z</time>
      </trkpt>
      <trkpt lat="50.29641" lon="5.09149">
        <ele>253.50640086121</ele>
        <time>2017-06-12T18:09:32Z</time>
      </trkpt>
      <trkpt lat="50.29636" lon="5.09181">
        <ele>255.55120565583</ele>
        <time>2017-06-12T18:09:37Z</time>
      </trkpt>
      <trkpt lat="50.2964" lon="5.09205">
        <ele>258.25827397499</ele>
        <time>2017-06-12T18:09:41Z</time>
      </trkpt>
      <trkpt lat="50.29646" lon="5.09241">
        <ele>259.2643762796</ele>
        <time>2017-06-12T18:09:46Z</time>
      </trkpt>
      <trkpt lat="50.29648" lon="5.09279">
        <ele>260.90859275714</ele>
        <time>2017-06-12T18:09:51Z</time>
      </trkpt>
      <trkpt lat="50.2964" lon="5.0931">
        <ele>262.99467413097</ele>
        <time>2017-06-12T18:09:55Z</time>
      </trkpt>
      <trkpt lat="50.2963" lon="5.09341">
        <ele>263.51082315384</ele>
        <time>2017-06-12T18:09:59Z</time>
      </trkpt>
      <trkpt lat="50.2962" lon="5.09375">
        <ele>260.41735025859</ele>
        <time>2017-06-12T18:10:04Z</time>
      </trkpt>
      <trkpt lat="50.29619" lon="5.09406">
        <ele>258.92672440058</ele>
        <time>2017-06-12T18:10:08Z</time>
      </trkpt>
      <trkpt lat="50.29621" lon="5.09437">
        <ele>259.09826885257</ele>
        <time>2017-06-12T18:10:12Z</time>
      </trkpt>
      <trkpt lat="50.29611" lon="5.09461">
        <ele>258.55034049677</ele>
        <time>2017-06-12T18:10:16Z</time>
      </trkpt>
      <trkpt lat="50.29597" lon="5.09482">
        <ele>257.89789862942</ele>
        <time>2017-06-12T18:10:20Z</time>
      </trkpt>
      <trkpt lat="50.29579" lon="5.09511">
        <ele>261.24046961342</ele>
        <time>2017-06-12T18:10:25Z</time>
      </trkpt>
      <trkpt lat="50.29565" lon="5.09533">
        <ele>262.67918376321</ele>
        <time>2017-06-12T18:10:29Z</time>
      </trkpt>
      <trkpt lat="50.2955" lon="5.09555">
        <ele>261.09816370642</ele>
        <time>2017-06-12T18:10:33Z</time>
      </trkpt>
      <trkpt lat="50.29536" lon="5.09576">
        <ele>259.0038234448</ele>
        <time>2017-06-12T18:10:37Z</time>
      </trkpt>
      <trkpt lat="50.29523" lon="5.09595">
        <ele>259.38710386594</ele>
        <time>2017-06-12T18:10:41Z</time>
      </trkpt>
      <trkpt lat="50.29513" lon="5.09612">
        <ele>259.46827896543</ele>
        <time>2017-06-12T18:10:45Z</time>
      </trkpt>
      <trkpt lat="50.29503" lon="5.09631">
        <ele>259.52300442627</ele>
        <time>2017-06-12T18:10:50Z</time>
      </trkpt>
      <trkpt lat="50.29492" lon="5.09651">
        <ele>260.260488078</ele>
        <time>2017-06-12T18:10:54Z</time>
      </trkpt>
      <trkpt lat="50.29483" lon="5.09666">
        <ele>260.49281357779</ele>
        <time>2017-06-12T18:10:58Z</time>
      </trkpt>
      <trkpt lat="50.29475" lon="5.09667">
        <ele>260.91108338061</ele>
        <time>2017-06-12T18:11:04Z</time>
      </trkpt>
      <trkpt lat="50.29467" lon="5.09658">
        <ele>261.71335314813</ele>
        <time>2017-06-12T18:11:08Z</time>
      </trkpt>
      <trkpt lat="50.29457" lon="5.09646">
        <ele>262.51491628697</ele>
        <time>2017-06-12T18:11:12Z</time>
      </trkpt>
      <trkpt lat="50.29445" lon="5.09627">
        <ele>263.09641732278</ele>
        <time>2017-06-12T18:11:17Z</time>
      </trkpt>
      <trkpt lat="50.29438" lon="5.09611">
        <ele>263.49812699467</ele>
        <time>2017-06-12T18:11:21Z</time>
      </trkpt>
      <trkpt lat="50.29425" lon="5.09592">
        <ele>264.034622199</ele>
        <time>2017-06-12T18:11:26Z</time>
      </trkpt>
      <trkpt lat="50.29414" lon="5.09576">
        <ele>264.06551316664</ele>
        <time>2017-06-12T18:11:30Z</time>
      </trkpt>
      <trkpt lat="50.29412" lon="5.09573">
        <ele>264.16211216608</ele>
        <time>2017-06-12T18:12:47Z</time>
      </trkpt>
      <trkpt lat="50.29412" lon="5.09573">
        <ele>264.16211216608</ele>
        <time>2017-06-12T18:13:04Z</time>
      </trkpt>
    </trkseg>
  </trk>
</gpx>